PORTS® Data Listing: 9414750 Alameda, CA

CO-OPS RAW PORTS DATA

************************      PRELIMINARY DATA      ************************** 

     THIS RAW DATA HAS NOT BEEN SUBJECT TO THE NATIONAL OCEAN SERVICE'S        
     QUALITY CONTROL OR QUALITY ASSURANCE PROCEDURES AND DOES NOT MEET         
     THE CRITERIA AND STANDARDS OF OFFICIAL NATIONAL OCEAN SERVICE             
     DATA.  IT IS RELEASED FOR LIMITED PUBLIC USE AS PRELIMINARY DATA TO       
     BE USED ONLY WITH APPROPRIATE CAUTION.                                    

************************      PRELIMINARY DATA      ************************** 


       CD   -   Calendar date
       T    -   Time
       TZ   -   Timezone
       PW   -   Predicted water level (feet above MLLW)
       OW   -   Observed water level (feet above MLLW)
       WS   -   Wind speed (knots)
       WD   -   Wind direction (degrees true)
       WG   -   Wind gust (knots)
       AT   -   Air temperature (degrees farenheit)
       WT   -   Water temperature (degrees farenheit)
       AP   -   Air pressure (millibars)
       SA   -   Salinty (PSU - Practical Salinity Units)
       SG   -   Specific gravity
       RH   -   Relative humidity
       AG   -   Air gap (feet)
       VI   -   Visibility (nautical miles)

       ** NOTE **
       A variable that has its data fields filled with "9"s, indicates that
       data was not collected for that sample period.
       **********


STATION NAME: Alameda (9414750)
****************************************************************************************************
    CD       T    TZ    PW     OW    WS   WD   WG    AT    WT    AP    SA    SG     RH    AG   VI
****************************************************************************************************
2019/11/16 21:36 PST   -0.19  -0.17    3  345    4  56.1  58.1 1020.0 -9.9 -9.999 -99.9 -99.99 -9.99
2019/11/16 21:42 PST   -0.14  -0.12    2  360    4  56.1  58.1 1020.1 -9.9 -9.999 -99.9 -99.99 -9.99
2019/11/16 21:48 PST   -0.08  -0.05    2  337    3  56.1  58.1 1020.1 -9.9 -9.999 -99.9 -99.99 -9.99
2019/11/16 21:54 PST   -0.01   0.03    2  354    3  55.9  58.1 1020.1 -9.9 -9.999 -99.9 -99.99 -9.99
2019/11/16 22:00 PST    0.06   0.10    2   11    3  55.9  58.1 1020.2 -9.9 -9.999 -99.9 -99.99 -9.99
2019/11/16 22:06 PST    0.13   0.16    3  358    3  55.8  57.9 1020.2 -9.9 -9.999 -99.9 -99.99 -9.99
2019/11/16 22:12 PST    0.21   0.23    2  360    4  55.8  57.9 1020.2 -9.9 -9.999 -99.9 -99.99 -9.99
2019/11/16 22:18 PST    0.29   0.30    1   18    2  55.6  57.9 1020.2 -9.9 -9.999 -99.9 -99.99 -9.99
2019/11/16 22:24 PST    0.38   0.40    1   10    2  55.6  57.9 1020.2 -9.9 -9.999 -99.9 -99.99 -9.99
2019/11/16 22:30 PST    0.47   0.51    2  346    3  55.6  57.9 1020.1 -9.9 -9.999 -99.9 -99.99 -9.99
2019/11/16 22:36 PST    0.56   0.62    3  350    3  55.4  57.9 1020.1 -9.9 -9.999 -99.9 -99.99 -9.99
2019/11/16 22:42 PST    0.66   0.72    2    4    4  55.4  57.9 1020.1 -9.9 -9.999 -99.9 -99.99 -9.99
2019/11/16 22:48 PST    0.76   0.83    2   21    2  55.2  57.9 1020.0 -9.9 -9.999 -99.9 -99.99 -9.99
2019/11/16 22:54 PST    0.86   0.96    2    9    3  55.0  57.9 1020.0 -9.9 -9.999 -99.9 -99.99 -9.99
2019/11/16 23:00 PST    0.96   1.08    3  345    3  55.0  57.9 1020.0 -9.9 -9.999 -99.9 -99.99 -9.99
2019/11/16 23:06 PST    1.07   1.19    3  357    4  55.2  57.9 1020.0 -9.9 -9.999 -99.9 -99.99 -9.99
2019/11/16 23:12 PST    1.18   1.30    2    1    3  55.0  57.9 1019.9 -9.9 -9.999 -99.9 -99.99 -9.99
2019/11/16 23:18 PST    1.29   1.40    1   10    3  55.2  57.9 1019.9 -9.9 -9.999 -99.9 -99.99 -9.99
2019/11/16 23:24 PST    1.41   1.52    1   26    2  54.9  57.9 1019.9 -9.9 -9.999 -99.9 -99.99 -9.99
2019/11/16 23:30 PST    1.52   1.65    3    4    4  54.7  57.9 1019.9 -9.9 -9.999 -99.9 -99.99 -9.99
2019/11/16 23:36 PST    1.64   1.81    2   22    4  54.7  57.9 1019.9 -9.9 -9.999 -99.9 -99.99 -9.99
2019/11/16 23:42 PST    1.76   1.94    2    5    3  54.5  57.9 1019.9 -9.9 -9.999 -99.9 -99.99 -9.99
2019/11/16 23:48 PST    1.87   2.05    3  355    3  54.5  57.9 1019.8 -9.9 -9.999 -99.9 -99.99 -9.99
2019/11/16 23:54 PST    1.99   2.16    3  350    4  54.5  57.9 1019.9 -9.9 -9.999 -99.9 -99.99 -9.99
2019/11/17 00:00 PST    2.11   2.26    3    7    3  54.3  57.9 1019.9 -9.9 -9.999 -99.9 -99.99 -9.99
2019/11/17 00:06 PST    2.23   2.39    2   19    3  54.3  57.7 1019.8 -9.9 -9.999 -99.9 -99.99 -9.99
2019/11/17 00:12 PST    2.35   2.54    2    0    3  54.3  57.7 1019.8 -9.9 -9.999 -99.9 -99.99 -9.99
2019/11/17 00:18 PST    2.47   2.66    2  356    3  54.3  57.7 1019.8 -9.9 -9.999 -99.9 -99.99 -9.99
2019/11/17 00:24 PST    2.59   2.76    2   12    3  54.3  57.7 1019.7 -9.9 -9.999 -99.9 -99.99 -9.99
2019/11/17 00:30 PST    2.70   2.87    3    0    3  54.5  57.7 1019.7 -9.9 -9.999 -99.9 -99.99 -9.99
2019/11/17 00:36 PST    2.82   2.98    2    6    3  54.5  57.7 1019.7 -9.9 -9.999 -99.9 -99.99 -9.99
2019/11/17 00:42 PST    2.93   3.11    2    4    4  54.3  57.7 1019.7 -9.9 -9.999 -99.9 -99.99 -9.99
2019/11/17 00:48 PST    3.05   3.24    2  356    3  54.3  57.7 1019.7 -9.9 -9.999 -99.9 -99.99 -9.99
2019/11/17 00:54 PST    3.16   3.35    3  356    4  54.3  57.7 1019.7 -9.9 -9.999 -99.9 -99.99 -9.99
2019/11/17 01:00 PST    3.27   3.47    2   15    4  54.1  57.6 1019.7 -9.9 -9.999 -99.9 -99.99 -9.99
2019/11/17 01:06 PST    3.38   3.59    3    5    4  54.1  57.6 1019.7 -9.9 -9.999 -99.9 -99.99 -9.99
2019/11/17 01:12 PST    3.49   3.70    3  338    4  54.3  57.6 1019.8 -9.9 -9.999 -99.9 -99.99 -9.99
2019/11/17 01:18 PST    3.59   3.81    2   14    4  54.3  57.6 1019.8 -9.9 -9.999 -99.9 -99.99 -9.99
2019/11/17 01:24 PST    3.69   3.94    2   15    4  54.1  57.6 1019.8 -9.9 -9.999 -99.9 -99.99 -9.99
2019/11/17 01:30 PST    3.79   4.04    4  350    4  54.0  57.6 1019.7 -9.9 -9.999 -99.9 -99.99 -9.99
2019/11/17 01:36 PST    3.89   4.13    4  337    5  54.3  57.6 1019.8 -9.9 -9.999 -99.9 -99.99 -9.99
2019/11/17 01:42 PST    3.99   4.21    5  357    6  54.3  57.6 1019.8 -9.9 -9.999 -99.9 -99.99 -9.99
2019/11/17 01:48 PST    4.08   4.30    3   10    5  54.1  57.4 1019.8 -9.9 -9.999 -99.9 -99.99 -9.99
2019/11/17 01:54 PST    4.17   4.39    3   11    5  54.0  57.4 1019.8 -9.9 -9.999 -99.9 -99.99 -9.99
2019/11/17 02:00 PST    4.26   4.46    3   16    5  54.0  57.4 1019.8 -9.9 -9.999 -99.9 -99.99 -9.99
2019/11/17 02:06 PST    4.34   4.55    2   18    4  53.8  57.4 1019.8 -9.9 -9.999 -99.9 -99.99 -9.99
2019/11/17 02:12 PST    4.42   4.64    3   18    4  53.8  57.4 1019.8 -9.9 -9.999 -99.9 -99.99 -9.99
2019/11/17 02:18 PST    4.50   4.72    2   14    4  54.0  57.4 1019.7 -9.9 -9.999 -99.9 -99.99 -9.99
2019/11/17 02:24 PST    4.57   4.77    3  351    4  54.1  57.4 1019.8 -9.9 -9.999 -99.9 -99.99 -9.99
2019/11/17 02:30 PST    4.65   4.85    3  345    4  54.1  57.4 1019.8 -9.9 -9.999 -99.9 -99.99 -9.99
2019/11/17 02:36 PST    4.71   4.92    4  352    5  54.1  57.4 1019.7 -9.9 -9.999 -99.9 -99.99 -9.99
2019/11/17 02:42 PST    4.78   5.00    2  350    4  54.1  57.4 1019.7 -9.9 -9.999 -99.9 -99.99 -9.99
2019/11/17 02:48 PST    4.84   5.09    2    7    3  54.1  57.4 1019.7 -9.9 -9.999 -99.9 -99.99 -9.99
2019/11/17 02:54 PST    4.90   5.16    2    3    3  54.3  57.4 1019.6 -9.9 -9.999 -99.9 -99.99 -9.99
2019/11/17 03:00 PST    4.95   5.20    2  326    3  54.3  57.4 1019.6 -9.9 -9.999 -99.9 -99.99 -9.99
2019/11/17 03:06 PST    5.00   5.24    2  324    3  54.3  57.4 1019.5 -9.9 -9.999 -99.9 -99.99 -9.99
2019/11/17 03:12 PST    5.04   5.28    2  338    4  54.5  57.4 1019.6 -9.9 -9.999 -99.9 -99.99 -9.99
2019/11/17 03:18 PST    5.08   5.34    2  351    4  54.3  57.4 1019.5 -9.9 -9.999 -99.9 -99.99 -9.99
2019/11/17 03:24 PST    5.12   5.40    3  337    4  54.5  57.4 1019.7 -9.9 -9.999 -99.9 -99.99 -9.99
2019/11/17 03:30 PST    5.15   5.43    4  342    5  54.3  57.4 1019.6 -9.9 -9.999 -99.9 -99.99 -9.99
2019/11/17 03:36 PST    5.17   5.45    3  315    4  54.5  57.4 1019.5 -9.9 -9.999 -99.9 -99.99 -9.99
2019/11/17 03:42 PST    5.20   5.46    2  338    4  54.5  57.4 1019.5 -9.9 -9.999 -99.9 -99.99 -9.99
2019/11/17 03:48 PST    5.21   5.46    2  320    4  54.9  57.4 1019.5 -9.9 -9.999 -99.9 -99.99 -9.99
2019/11/17 03:54 PST    5.22   5.46    4  356    5  54.7  57.4 1019.4 -9.9 -9.999 -99.9 -99.99 -9.99
2019/11/17 04:00 PST    5.23   5.48    2    8    4  54.7  57.4 1019.5 -9.9 -9.999 -99.9 -99.99 -9.99
2019/11/17 04:06 PST    5.23   5.51    1   45    3  54.1  57.4 1019.5 -9.9 -9.999 -99.9 -99.99 -9.99
2019/11/17 04:12 PST    5.23   5.49    2   17    4  54.0  57.4 1019.5 -9.9 -9.999 -99.9 -99.99 -9.99
2019/11/17 04:18 PST    5.22   5.46    2   23    3  54.0  57.4 1019.4 -9.9 -9.999 -99.9 -99.99 -9.99
2019/11/17 04:24 PST    5.20   5.44    1   49    3  54.0  57.4 1019.4 -9.9 -9.999 -99.9 -99.99 -9.99
2019/11/17 04:30 PST    5.18   5.42    1   60    3  53.4  57.4 1019.5 -9.9 -9.999 -99.9 -99.99 -9.99
2019/11/17 04:36 PST    5.16   5.41    1  116    1  53.2  57.4 1019.5 -9.9 -9.999 -99.9 -99.99 -9.99
2019/11/17 04:42 PST    5.13   5.40    1  101    2  53.1  57.4 1019.5 -9.9 -9.999 -99.9 -99.99 -9.99
2019/11/17 04:48 PST    5.10   5.34    1   48    3  53.2  57.4 1019.5 -9.9 -9.999 -99.9 -99.99 -9.99
2019/11/17 04:54 PST    5.06   5.33    1   37    3  53.4  57.4 1019.6 -9.9 -9.999 -99.9 -99.99 -9.99
2019/11/17 05:00 PST    5.02   5.28    1   82    3  53.4  57.4 1019.6 -9.9 -9.999 -99.9 -99.99 -9.99
2019/11/17 05:06 PST    4.98   5.25    1   99    2  53.1  57.4 1019.7 -9.9 -9.999 -99.9 -99.99 -9.99
2019/11/17 05:12 PST    4.93   5.23    1   82    2  52.9  57.4 1019.7 -9.9 -9.999 -99.9 -99.99 -9.99
2019/11/17 05:18 PST    4.88   5.19    1   95    1  52.9  57.4 1019.8 -9.9 -9.999 -99.9 -99.99 -9.99
2019/11/17 05:24 PST    4.83   5.11    1   95    1  52.9  57.4 1019.9 -9.9 -9.999 -99.9 -99.99 -9.99
2019/11/17 05:30 PST    4.77   5.06    1   78    2  53.1  57.4 1020.0 -9.9 -9.999 -99.9 -99.99 -9.99
2019/11/17 05:36 PST    4.71   5.00    1   85    1  52.5  57.4 1020.0 -9.9 -9.999 -99.9 -99.99 -9.99
2019/11/17 05:42 PST    4.65   4.92    2   99    2  52.7  57.4 1020.1 -9.9 -9.999 -99.9 -99.99 -9.99
2019/11/17 05:48 PST    4.59   4.85    2   97    2  52.7  57.4 1020.1 -9.9 -9.999 -99.9 -99.99 -9.99
2019/11/17 05:54 PST    4.53   4.78    1   89    2  52.9  57.4 1020.0 -9.9 -9.999 -99.9 -99.99 -9.99
2019/11/17 06:00 PST    4.46   4.70    1  116    2  52.7  57.4 1020.0 -9.9 -9.999 -99.9 -99.99 -9.99
2019/11/17 06:06 PST    4.40   4.61    1   96    2  52.9  57.4 1019.9 -9.9 -9.999 -99.9 -99.99 -9.99
2019/11/17 06:12 PST    4.33   4.57    1  112    2  53.1  57.4 1020.0 -9.9 -9.999 -99.9 -99.99 -9.99
2019/11/17 06:18 PST    4.27   4.50    2   83    2  53.2  57.4 1020.0 -9.9 -9.999 -99.9 -99.99 -9.99
2019/11/17 06:24 PST    4.20   4.41    1  101    2  53.6  57.4 1020.0 -9.9 -9.999 -99.9 -99.99 -9.99
2019/11/17 06:30 PST    4.14   4.33    0   99    1  53.6  57.4 1020.0 -9.9 -9.999 -99.9 -99.99 -9.99
2019/11/17 06:36 PST    4.08   4.29    0  309    1  53.6  57.4 1020.0 -9.9 -9.999 -99.9 -99.99 -9.99
2019/11/17 06:42 PST    4.02   4.24    1  342    2  53.8  57.4 1020.0 -9.9 -9.999 -99.9 -99.99 -9.99
2019/11/17 06:48 PST    3.96   4.17    1   80    2  54.0  57.4 1020.0 -9.9 -9.999 -99.9 -99.99 -9.99
2019/11/17 06:54 PST    3.90   4.12    0   70    1  53.8  57.4 1020.1 -9.9 -9.999 -99.9 -99.99 -9.99
2019/11/17 07:00 PST    3.84   4.07    1   83    1  53.6  57.4 1020.1 -9.9 -9.999 -99.9 -99.99 -9.99
2019/11/17 07:06 PST    3.79   4.01    0   74    1  54.0  57.4 1020.2 -9.9 -9.999 -99.9 -99.99 -9.99
2019/11/17 07:12 PST    3.74   3.94    1   19    1  54.0  57.4 1020.3 -9.9 -9.999 -99.9 -99.99 -9.99
2019/11/17 07:18 PST    3.69   3.89    0  108    1  54.0  57.6 1020.4 -9.9 -9.999 -99.9 -99.99 -9.99
2019/11/17 07:24 PST    3.64   3.84    1   90    2  53.8  57.4 1020.4 -9.9 -9.999 -99.9 -99.99 -9.99
2019/11/17 07:30 PST    3.60   3.77    0  113    2  52.9  57.4 1020.4 -9.9 -9.999 -99.9 -99.99 -9.99
2019/11/17 07:36 PST    3.56   3.72    0   22    1  52.9  57.4 1020.4 -9.9 -9.999 -99.9 -99.99 -9.99
2019/11/17 07:42 PST    3.52   3.71    1   66    2  53.2  57.4 1020.4 -9.9 -9.999 -99.9 -99.99 -9.99
2019/11/17 07:48 PST    3.49   3.72    1    2    1  53.2  57.4 1020.4 -9.9 -9.999 -99.9 -99.99 -9.99
2019/11/17 07:54 PST    3.46   3.68    1  343    1  53.2  57.4 1020.4 -9.9 -9.999 -99.9 -99.99 -9.99
2019/11/17 08:00 PST    3.43   3.60    1  346    2  53.4  57.4 1020.4 -9.9 -9.999 -99.9 -99.99 -9.99
2019/11/17 08:06 PST    3.41   3.57    1  353    2  53.8  57.4 1020.5 -9.9 -9.999 -99.9 -99.99 -9.99
2019/11/17 08:12 PST    3.39   3.56    2  270    2  53.8  57.4 1020.6 -9.9 -9.999 -99.9 -99.99 -9.99
2019/11/17 08:18 PST    3.37   3.53    2  296    3  54.1  57.4 1020.7 -9.9 -9.999 -99.9 -99.99 -9.99
2019/11/17 08:24 PST    3.36   3.51    2  313    4  54.5  57.4 1020.8 -9.9 -9.999 -99.9 -99.99 -9.99
2019/11/17 08:30 PST    3.35   3.53    2  332    4  54.7  57.4 1020.7 -9.9 -9.999 -99.9 -99.99 -9.99
2019/11/17 08:36 PST    3.34   3.56    3  356    5  54.9  57.4 1020.8 -9.9 -9.999 -99.9 -99.99 -9.99
2019/11/17 08:42 PST    3.34   3.54    3  339    5  54.9  57.4 1020.8 -9.9 -9.999 -99.9 -99.99 -9.99
2019/11/17 08:48 PST    3.34   3.48    1  243    2  55.2  57.4 1020.8 -9.9 -9.999 -99.9 -99.99 -9.99
2019/11/17 08:54 PST    3.34   3.47    3  285    4  55.2  57.4 1020.8 -9.9 -9.999 -99.9 -99.99 -9.99
2019/11/17 09:00 PST    3.35   3.51    3  303    4  55.9  57.4 1020.8 -9.9 -9.999 -99.9 -99.99 -9.99
2019/11/17 09:06 PST    3.36   3.54    3  283    4  56.3  57.4 1020.8 -9.9 -9.999 -99.9 -99.99 -9.99
2019/11/17 09:12 PST    3.37   3.56    4  280    5  56.5  57.4 1020.9 -9.9 -9.999 -99.9 -99.99 -9.99
2019/11/17 09:18 PST    3.39   3.59    2  301    4  57.0  57.4 1020.9 -9.9 -9.999 -99.9 -99.99 -9.99
2019/11/17 09:24 PST    3.41   3.58    1  315    4  57.6  57.4 1020.9 -9.9 -9.999 -99.9 -99.99 -9.99
2019/11/17 09:30 PST    3.43   3.58    2  328    3  57.6  57.4 1020.9 -9.9 -9.999 -99.9 -99.99 -9.99
2019/11/17 09:36 PST    3.46   3.60    4  332    5  57.7  57.4 1020.9 -9.9 -9.999 -99.9 -99.99 -9.99
2019/11/17 09:42 PST    3.49   3.67    3  337    5  57.9  57.4 1020.9 -9.9 -9.999 -99.9 -99.99 -9.99
2019/11/17 09:48 PST    3.53   3.76    2  319    4  58.3  57.4 1020.9 -9.9 -9.999 -99.9 -99.99 -9.99
2019/11/17 09:54 PST    3.57   3.82    2  320    4  58.8  57.4 1020.8 -9.9 -9.999 -99.9 -99.99 -9.99
2019/11/17 10:00 PST    3.61   3.84    2  321    3  59.4  57.4 1020.8 -9.9 -9.999 -99.9 -99.99 -9.99
2019/11/17 10:06 PST    3.66   3.87    3  324    4  59.7  57.4 1020.8 -9.9 -9.999 -99.9 -99.99 -9.99
2019/11/17 10:12 PST    3.71   3.93    4  320    5  60.1  57.4 1020.8 -9.9 -9.999 -99.9 -99.99 -9.99
2019/11/17 10:18 PST    3.76   4.01    3  320    5  60.4  57.4 1020.8 -9.9 -9.999 -99.9 -99.99 -9.99
2019/11/17 10:24 PST    3.82   4.05    3  316    5  60.6  57.4 1020.7 -9.9 -9.999 -99.9 -99.99 -9.99
2019/11/17 10:30 PST    3.87   4.09    4  321    6  60.6  57.4 1020.6 -9.9 -9.999 -99.9 -99.99 -9.99
2019/11/17 10:36 PST    3.94   4.16    3  334    5  60.8  57.4 1020.5 -9.9 -9.999 -99.9 -99.99 -9.99
2019/11/17 10:42 PST    4.00   4.23    4  328    5  61.0  57.4 1020.4 -9.9 -9.999 -99.9 -99.99 -9.99
2019/11/17 10:48 PST    4.07   4.30    4  322    5  61.5  57.4 1020.4 -9.9 -9.999 -99.9 -99.99 -9.99
2019/11/17 10:54 PST    4.14   4.37    3  316    5  62.4  57.4 1020.3 -9.9 -9.999 -99.9 -99.99 -9.99
2019/11/17 11:00 PST    4.22   4.46    4  323    5  62.6  57.4 1020.2 -9.9 -9.999 -99.9 -99.99 -9.99
2019/11/17 11:06 PST    4.29   4.54    3  322    5  63.5  57.4 1020.1 -9.9 -9.999 -99.9 -99.99 -9.99
2019/11/17 11:12 PST    4.37   4.63    4  322    5  63.7  57.4 1020.1 -9.9 -9.999 -99.9 -99.99 -9.99
2019/11/17 11:18 PST    4.45   4.71    4  320    5  64.0  57.4 1019.9 -9.9 -9.999 -99.9 -99.99 -9.99
2019/11/17 11:24 PST    4.53   4.82    4  318    5  64.6  57.4 1019.8 -9.9 -9.999 -99.9 -99.99 -9.99
2019/11/17 11:30 PST    4.62   4.91    4  290    5  65.1  57.4 1019.7 -9.9 -9.999 -99.9 -99.99 -9.99
2019/11/17 11:36 PST    4.70   4.99    4  294    5  65.1  57.4 1019.5 -9.9 -9.999 -99.9 -99.99 -9.99
2019/11/17 11:42 PST    4.78   5.07    4  286    5  64.9  57.4 1019.4 -9.9 -9.999 -99.9 -99.99 -9.99
2019/11/17 11:48 PST    4.87   5.15    4  323    5  64.8  57.4 1019.3 -9.9 -9.999 -99.9 -99.99 -9.99
2019/11/17 11:54 PST    4.95   5.24    2  317    5  65.1  57.4 1019.2 -9.9 -9.999 -99.9 -99.99 -9.99
2019/11/17 12:00 PST    5.04   5.33    3  331    4  65.5  57.4 1019.1 -9.9 -9.999 -99.9 -99.99 -9.99
2019/11/17 12:06 PST    5.12   5.42    5  313    6  65.8  57.4 1019.0 -9.9 -9.999 -99.9 -99.99 -9.99
2019/11/17 12:12 PST    5.21   5.48    4  313    9  64.9  57.4 1019.0 -9.9 -9.999 -99.9 -99.99 -9.99
2019/11/17 12:18 PST    5.29   5.51    4  323    6  65.3  57.4 1018.9 -9.9 -9.999 -99.9 -99.99 -9.99
2019/11/17 12:24 PST    5.37   5.56    4  322    6  65.8  57.4 1018.8 -9.9 -9.999 -99.9 -99.99 -9.99
2019/11/17 12:30 PST    5.45   5.63    4  317    6  66.2  57.4 1018.6 -9.9 -9.999 -99.9 -99.99 -9.99
2019/11/17 12:36 PST    5.53   5.71    4  309    6  66.7  57.4 1018.6 -9.9 -9.999 -99.9 -99.99 -9.99
2019/11/17 12:42 PST    5.61   5.75    3  316    6  67.1  57.4 1018.5 -9.9 -9.999 -99.9 -99.99 -9.99
2019/11/17 12:48 PST    5.68   5.83    3  310    4  68.0  57.4 1018.4 -9.9 -9.999 -99.9 -99.99 -9.99
2019/11/17 12:54 PST    5.75   5.89    5  284    6  67.1  57.4 1018.3 -9.9 -9.999 -99.9 -99.99 -9.99
2019/11/17 13:00 PST    5.81   5.95    5  286    7  67.3  57.4 1018.3 -9.9 -9.999 -99.9 -99.99 -9.99
2019/11/17 13:06 PST    5.88   6.04    5  286    6  67.1  57.4 1018.2 -9.9 -9.999 -99.9 -99.99 -9.99
2019/11/17 13:12 PST    5.94   6.13    3  296    5  68.0  57.4 1018.1 -9.9 -9.999 -99.9 -99.99 -9.99
2019/11/17 13:18 PST    5.99   6.18    3  310    4  68.5  57.4 1018.0 -9.9 -9.999 -99.9 -99.99 -9.99
2019/11/17 13:24 PST    6.04   6.23    3  335    4  68.9  57.4 1017.9 -9.9 -9.999 -99.9 -99.99 -9.99
2019/11/17 13:30 PST    6.09   6.30    2  300    5  69.8  57.4 1017.8 -9.9 -9.999 -99.9 -99.99 -9.99
2019/11/17 13:36 PST    6.13   6.35    3  282    4  69.1  57.4 1017.7 -9.9 -9.999 -99.9 -99.99 -9.99
2019/11/17 13:42 PST    6.17   6.39    4  296    5  70.0  57.4 1017.7 -9.9 -9.999 -99.9 -99.99 -9.99
2019/11/17 13:48 PST    6.21   6.43    4  295    5  70.2  57.4 1017.6 -9.9 -9.999 -99.9 -99.99 -9.99
2019/11/17 13:54 PST    6.24   6.46    4  289    6  70.0  57.4 1017.6 -9.9 -9.999 -99.9 -99.99 -9.99
2019/11/17 14:00 PST    6.26   6.46    5  285    6  70.0  57.4 1017.6 -9.9 -9.999 -99.9 -99.99 -9.99
2019/11/17 14:06 PST    6.28   6.46    5  285    7  69.6  57.4 1017.5 -9.9 -9.999 -99.9 -99.99 -9.99
2019/11/17 14:12 PST    6.29   6.48    5  283    7  69.4  57.4 1017.4 -9.9 -9.999 -99.9 -99.99 -9.99
2019/11/17 14:18 PST    6.30   6.50    6  285    7  68.5  57.4 1017.3 -9.9 -9.999 -99.9 -99.99 -9.99
2019/11/17 14:24 PST    6.31   6.50    6  284    7  68.5  57.4 1017.3 -9.9 -9.999 -99.9 -99.99 -9.99
2019/11/17 14:30 PST    6.30   6.48    6  285    7  68.5  57.6 1017.3 -9.9 -9.999 -99.9 -99.99 -9.99
2019/11/17 14:36 PST    6.30   6.44    5  285    7  68.4  57.6 1017.3 -9.9 -9.999 -99.9 -99.99 -9.99
2019/11/17 14:42 PST    6.28   6.40    6  286    7  68.5  57.6 1017.3 -9.9 -9.999 -99.9 -99.99 -9.99
2019/11/17 14:48 PST    6.27   6.41    6  287    7  68.2  57.6 1017.2 -9.9 -9.999 -99.9 -99.99 -9.99
2019/11/17 14:54 PST    6.24   6.42    5  287    6  68.5  57.6 1017.2 -9.9 -9.999 -99.9 -99.99 -9.99
2019/11/17 15:00 PST    6.21   6.37    5  288    6  68.5  57.7 1017.2 -9.9 -9.999 -99.9 -99.99 -9.99
2019/11/17 15:06 PST    6.18   6.31    4  287    6  68.9  57.7 1017.1 -9.9 -9.999 -99.9 -99.99 -9.99
2019/11/17 15:12 PST    6.14   6.26    5  288    6  69.3  57.7 1017.1 -9.9 -9.999 -99.9 -99.99 -9.99
2019/11/17 15:18 PST    6.09   6.21    4  291    5  69.6  57.7 1017.0 -9.9 -9.999 -99.9 -99.99 -9.99
2019/11/17 15:24 PST    6.04   6.15    3  301    5  70.2  57.7 1016.9 -9.9 -9.999 -99.9 -99.99 -9.99
2019/11/17 15:30 PST    5.98   6.09    3  290    4  70.5  57.7 1016.8 -9.9 -9.999 -99.9 -99.99 -9.99
2019/11/17 15:36 PST    5.91   6.00    4  308    5  70.7  57.9 1016.8 -9.9 -9.999 -99.9 -99.99 -9.99
2019/11/17 15:42 PST    5.84   5.89    3  305    5  70.9  57.9 1016.8 -9.9 -9.999 -99.9 -99.99 -9.99
2019/11/17 15:48 PST    5.77   5.79    3  297    5  70.7  57.9 1016.7 -9.9 -9.999 -99.9 -99.99 -9.99
2019/11/17 15:54 PST    5.68   5.69    3  304    4  71.1  57.9 1016.7 -9.9 -9.999 -99.9 -99.99 -9.99
2019/11/17 16:00 PST    5.60   5.56    3  308    5  71.1  57.9 1016.7 -9.9 -9.999 -99.9 -99.99 -9.99
2019/11/17 16:06 PST    5.50   5.45    4  301    5  70.7  57.9 1016.6 -9.9 -9.999 -99.9 -99.99 -9.99
2019/11/17 16:12 PST    5.40   5.35    3  304    4  70.7  57.9 1016.6 -9.9 -9.999 -99.9 -99.99 -9.99
2019/11/17 16:18 PST    5.30   5.23    2  325    4  70.5  57.9 1016.5 -9.9 -9.999 -99.9 -99.99 -9.99
2019/11/17 16:24 PST    5.19   5.11    2  302    4  70.7  57.9 1016.5 -9.9 -9.999 -99.9 -99.99 -9.99
2019/11/17 16:30 PST    5.07   4.98    3  293    4  70.0  57.9 1016.4 -9.9 -9.999 -99.9 -99.99 -9.99
2019/11/17 16:36 PST    4.95   4.82    3  299    4  69.1  57.9 1016.4 -9.9 -9.999 -99.9 -99.99 -9.99
2019/11/17 16:42 PST    4.83   4.69    3  308    4  68.5  57.9 1016.3 -9.9 -9.999 -99.9 -99.99 -9.99
2019/11/17 16:48 PST    4.70   4.55    3  312    4  68.5  58.1 1016.3 -9.9 -9.999 -99.9 -99.99 -9.99
2019/11/17 16:54 PST    4.57   4.44    3  314    3  68.4  58.1 1016.3 -9.9 -9.999 -99.9 -99.99 -9.99
2019/11/17 17:00 PST    4.43   4.32    3  335    4  68.0  58.1 1016.3 -9.9 -9.999 -99.9 -99.99 -9.99
2019/11/17 17:06 PST    4.29   4.19    3  306    4  68.2  58.1 1016.4 -9.9 -9.999 -99.9 -99.99 -9.99
2019/11/17 17:12 PST    4.14   4.04    2  335    4  67.6  58.1 1016.4 -9.9 -9.999 -99.9 -99.99 -9.99
2019/11/17 17:18 PST    3.99   3.88    3  335    4  67.5  58.1 1016.4 -9.9 -9.999 -99.9 -99.99 -9.99
2019/11/17 17:24 PST    3.84   3.71    2  347    4  67.5  58.1 1016.4 -9.9 -9.999 -99.9 -99.99 -9.99
2019/11/17 17:30 PST    3.69   3.59    3  334    4  67.1  58.1 1016.4 -9.9 -9.999 -99.9 -99.99 -9.99
2019/11/17 17:36 PST    3.53   3.48    2  340    4  66.9  58.1 1016.4 -9.9 -9.999 -99.9 -99.99 -9.99
2019/11/17 17:42 PST    3.37   3.33    2  341    3  66.6  58.1 1016.5 -9.9 -9.999 -99.9 -99.99 -9.99
2019/11/17 17:48 PST    3.22   3.16    2  344    4  66.4  58.1 1016.5 -9.9 -9.999 -99.9 -99.99 -9.99
2019/11/17 17:54 PST    3.06   3.00    3  344    4  66.0  58.1 1016.5 -9.9 -9.999 -99.9 -99.99 -9.99
2019/11/17 18:00 PST    2.90   2.86    3  330    4  65.8  58.1 1016.5 -9.9 -9.999 -99.9 -99.99 -9.99
2019/11/17 18:06 PST    2.74   2.72    3  342    4  65.7  58.1 1016.4 -9.9 -9.999 -99.9 -99.99 -9.99
2019/11/17 18:12 PST    2.58   2.61    4  346    4  65.3  58.1 1016.4 -9.9 -9.999 -99.9 -99.99 -9.99
2019/11/17 18:18 PST    2.42   2.49    4  346    5  64.6  58.1 1016.5 -9.9 -9.999 -99.9 -99.99 -9.99
2019/11/17 18:24 PST    2.27   2.36    4  348    5  64.2  58.1 1016.5 -9.9 -9.999 -99.9 -99.99 -9.99
2019/11/17 18:30 PST    2.11   2.23    4  360    5  63.5  58.1 1016.4 -9.9 -9.999 -99.9 -99.99 -9.99
2019/11/17 18:36 PST    1.96   2.11    3   20    4  63.5  58.1 1016.4 -9.9 -9.999 -99.9 -99.99 -9.99
2019/11/17 18:42 PST    1.82   1.99    3   13    4  63.5  58.1 1016.4 -9.9 -9.999 -99.9 -99.99 -9.99
2019/11/17 18:48 PST    1.67   1.89    3    3    5  63.1  58.1 1016.4 -9.9 -9.999 -99.9 -99.99 -9.99
2019/11/17 18:54 PST    1.53   1.76    2   24    4  63.0  58.1 1016.4 -9.9 -9.999 -99.9 -99.99 -9.99
2019/11/17 19:00 PST    1.39   1.64    3   17    4  63.1  58.1 1016.4 -9.9 -9.999 -99.9 -99.99 -9.99
2019/11/17 19:06 PST    1.26   1.53    3   12    4  62.8  58.3 1016.4 -9.9 -9.999 -99.9 -99.99 -9.99
2019/11/17 19:12 PST    1.13   1.43    3   29    4  62.8  58.3 1016.5 -9.9 -9.999 -99.9 -99.99 -9.99
2019/11/17 19:18 PST    1.00   1.32    2   85    3  62.1  58.3 1016.6 -9.9 -9.999 -99.9 -99.99 -9.99
2019/11/17 19:24 PST    0.88   1.20    2   95    3  62.1  58.3 1016.6 -9.9 -9.999 -99.9 -99.99 -9.99
2019/11/17 19:30 PST    0.77   1.11    3   94    4  62.4  58.3 1016.5 -9.9 -9.999 -99.9 -99.99 -9.99
2019/11/17 19:36 PST    0.66   1.03    0  125    3  62.4  58.3 1016.6 -9.9 -9.999 -99.9 -99.99 -9.99
2019/11/17 19:42 PST    0.56   0.93    0  117    1  62.2  58.3 1016.5 -9.9 -9.999 -99.9 -99.99 -9.99
2019/11/17 19:48 PST    0.46   0.82    0  112    1  61.9  58.3 1016.5 -9.9 -9.999 -99.9 -99.99 -9.99
2019/11/17 19:54 PST    0.37   0.72    0   99    2  61.9  58.3 1016.5 -9.9 -9.999 -99.9 -99.99 -9.99
2019/11/17 20:00 PST    0.28   0.62    2   22    3  61.7  58.3 1016.5 -9.9 -9.999 -99.9 -99.99 -9.99
2019/11/17 20:06 PST    0.20   0.55    2   21    4  61.5  58.3 1016.5 -9.9 -9.999 -99.9 -99.99 -9.99
2019/11/17 20:12 PST    0.12   0.49    4  352    4  61.2  58.3 1016.5 -9.9 -9.999 -99.9 -99.99 -9.99
2019/11/17 20:18 PST    0.05   0.41    3    5    4  61.3  58.5 1016.5 -9.9 -9.999 -99.9 -99.99 -9.99
2019/11/17 20:24 PST   -0.01   0.36    3   16    4  61.3  58.5 1016.5 -9.9 -9.999 -99.9 -99.99 -9.99
2019/11/17 20:30 PST   -0.07   0.28    3    4    3  61.2  58.5 1016.5 -9.9 -9.999 -99.9 -99.99 -9.99
2019/11/17 20:36 PST   -0.12   0.20    2   27    3  61.3  58.3 1016.5 -9.9 -9.999 -99.9 -99.99 -9.99
2019/11/17 20:42 PST   -0.16   0.11    2   24    4  61.2  58.5 1016.5 -9.9 -9.999 -99.9 -99.99 -9.99
2019/11/17 20:48 PST   -0.21   0.09    2   28    4  60.8  58.5 1016.5 -9.9 -9.999 -99.9 -99.99 -9.99
2019/11/17 20:54 PST   -0.24   0.05    2   32    4  60.6  58.5 1016.5 -9.9 -9.999 -99.9 -99.99 -9.99
2019/11/17 21:00 PST   -0.27  -0.01    2   49    4  60.6  58.5 1016.5 -9.9 -9.999 -99.9 -99.99 -9.99
2019/11/17 21:06 PST   -0.29  -0.05    2   20    4  60.4  58.5 1016.5 -9.9 -9.999 -99.9 -99.99 -9.99
2019/11/17 21:12 PST   -0.31  -0.07    3   10    4  60.3  58.5 1016.5 -9.9 -9.999 -99.9 -99.99 -9.99
2019/11/17 21:18 PST   -0.32  -0.10    3   14    4  60.3  58.5 1016.5 -9.9 -9.999 -99.9 -99.99 -9.99
2019/11/17 21:24 PST   -0.33  -0.12    3    9    4  60.1  58.5 1016.5 -9.9 -9.999 -99.9 -99.99 -9.99
2019/11/17 21:30 PST   -0.33  -0.12    4  345    5  60.3  58.5 1016.5 -9.9 -9.999 -99.9 -99.99 -9.99
2019/11/17 21:36 PST   -0.33  -0.11    4  349    5  60.1  58.5 1016.5 -9.9 -9.999 -99.9 -99.99 -9.99
2019/11/17 21:42 PST   -0.32  -0.11    4  357    4  59.9  58.5 1016.6 -9.9 -9.999 -99.9 -99.99 -9.99
2019/11/17 21:48 PST   -0.31  -0.11    4  346    4  59.9  58.5 1016.6 -9.9 -9.999 -99.9 -99.99 -9.99
2019/11/17 21:54 PST   -0.29  -0.12    4  351    4  59.9  58.5 1016.6 -9.9 -9.999 -99.9 -99.99 -9.99
2019/11/17 22:00 PST   -0.27  -0.13    1    1    3  59.7  58.5 1016.7 -9.9 -9.999 -99.9 -99.99 -9.99
2019/11/17 22:06 PST   -0.24  -0.12    1   62    2  59.9  58.5 1016.7 -9.9 -9.999 -99.9 -99.99 -9.99
2019/11/17 22:12 PST   -0.21  -0.08    0  167    1  59.5  58.5 1016.7 -9.9 -9.999 -99.9 -99.99 -9.99
2019/11/17 22:18 PST   -0.17  -0.04    1  356    2  59.2  58.5 1016.7 -9.9 -9.999 -99.9 -99.99 -9.99
2019/11/17 22:24 PST   -0.13   0.01    2   21    3  59.4  58.5 1016.8 -9.9 -9.999 -99.9 -99.99 -9.99
2019/11/17 22:30 PST   -0.08   0.05    2   25    3  59.2  58.5 1016.8 -9.9 -9.999 -99.9 -99.99 -9.99
2019/11/17 22:36 PST   -0.03   0.11    2    1    3  59.2  58.5 1016.7 -9.9 -9.999 -99.9 -99.99 -9.99
2019/11/17 22:42 PST    0.03   0.18    3  345    4  59.4  58.5 1016.8 -9.9 -9.999 -99.9 -99.99 -9.99
2019/11/17 22:48 PST    0.09   0.24    2   16    4  59.0  58.5 1016.8 -9.9 -9.999 -99.9 -99.99 -9.99
2019/11/17 22:54 PST    0.15   0.28    3  356    4  58.6  58.3 1016.9 -9.9 -9.999 -99.9 -99.99 -9.99
2019/11/17 23:00 PST    0.22   0.36    1  356    3  58.8  58.3 1016.9 -9.9 -9.999 -99.9 -99.99 -9.99
2019/11/17 23:06 PST    0.30   0.45    4  359    5  58.8  58.3 1016.9 -9.9 -9.999 -99.9 -99.99 -9.99
2019/11/17 23:12 PST    0.37   0.55    3    4    4  58.8  58.3 1016.9 -9.9 -9.999 -99.9 -99.99 -9.99
2019/11/17 23:18 PST    0.46   0.64    2   17    4  58.8  58.3 1016.9 -9.9 -9.999 -99.9 -99.99 -9.99
2019/11/17 23:24 PST    0.54   0.75    1   37    3  58.6  58.3 1016.8 -9.9 -9.999 -99.9 -99.99 -9.99
2019/11/17 23:30 PST    0.63   0.84    1  351    2  58.5  58.3 1016.8 -9.9 -9.999 -99.9 -99.99 -9.99
2019/11/17 23:36 PST    0.72   0.92    2  354    2  58.5  58.3 1016.8 -9.9 -9.999 -99.9 -99.99 -9.99
2019/11/17 23:42 PST    0.82   1.02    3  352    3  58.5  58.3 1016.8 -9.9 -9.999 -99.9 -99.99 -9.99
2019/11/17 23:48 PST    0.91   1.12    3  339    4  58.5  58.3 1016.7 -9.9 -9.999 -99.9 -99.99 -9.99
2019/11/17 23:54 PST    1.01   1.21    2  341    4  58.6  58.3 1016.7 -9.9 -9.999 -99.9 -99.99 -9.99
2019/11/18 00:00 PST    1.12   1.32    4  335    5  59.0  58.3 1016.7 -9.9 -9.999 -99.9 -99.99 -9.99
2019/11/18 00:06 PST    1.22   1.45    4  342    5  58.8  58.3 1016.7 -9.9 -9.999 -99.9 -99.99 -9.99
2019/11/18 00:12 PST    1.33   1.57    4  336    7  58.6  58.1 1016.7 -9.9 -9.999 -99.9 -99.99 -9.99
2019/11/18 00:18 PST    1.44   1.67    4  340    6  58.5  58.1 1016.7 -9.9 -9.999 -99.9 -99.99 -9.99
2019/11/18 00:24 PST    1.55   1.77    2  335    4  58.5  58.1 1016.7 -9.9 -9.999 -99.9 -99.99 -9.99
2019/11/18 00:30 PST    1.66   1.89    1   20    2  58.3  58.1 1016.7 -9.9 -9.999 -99.9 -99.99 -9.99
2019/11/18 00:36 PST    1.78   2.03    4  351    4  58.3  58.1 1016.6 -9.9 -9.999 -99.9 -99.99 -9.99
2019/11/18 00:42 PST    1.89   2.17    1  111    4  57.6  58.1 1016.6 -9.9 -9.999 -99.9 -99.99 -9.99
2019/11/18 00:48 PST    2.01   2.28    1   76    3  57.4  58.1 1016.6 -9.9 -9.999 -99.9 -99.99 -9.99
2019/11/18 00:54 PST    2.12   2.39    1   94    2  56.5  58.1 1016.6 -9.9 -9.999 -99.9 -99.99 -9.99
2019/11/18 01:00 PST    2.24   2.53    2  118    3  56.3  58.1 1016.7 -9.9 -9.999 -99.9 -99.99 -9.99
2019/11/18 01:06 PST    2.36   2.66    2  103    3  56.3  58.1 1016.7 -9.9 -9.999 -99.9 -99.99 -9.99
2019/11/18 01:12 PST    2.47   2.77    2   17    3  55.9  57.9 1016.6 -9.9 -9.999 -99.9 -99.99 -9.99
2019/11/18 01:18 PST    2.59   2.89    2    8    4  56.5  57.9 1016.6 -9.9 -9.999 -99.9 -99.99 -9.99
2019/11/18 01:24 PST    2.70   3.00    3   12    4  56.5  57.9 1016.6 -9.9 -9.999 -99.9 -99.99 -9.99
2019/11/18 01:30 PST    2.81   3.12    3  359    3  56.8  57.9 1016.6 -9.9 -9.999 -99.9 -99.99 -9.99
2019/11/18 01:36 PST    2.93   3.23    4  354    4  57.2  57.7 1016.5 -9.9 -9.999 -99.9 -99.99 -9.99
2019/11/18 01:42 PST    3.04   3.35    2   34    4  57.0  57.7 1016.4 -9.9 -9.999 -99.9 -99.99 -9.99
2019/11/18 01:48 PST    3.15   3.47    4  357    4  56.8  57.7 1016.3 -9.9 -9.999 -99.9 -99.99 -9.99
2019/11/18 01:54 PST    3.26   3.58    3    2    5  56.8  57.7 1016.3 -9.9 -9.999 -99.9 -99.99 -9.99
2019/11/18 02:00 PST    3.37   3.66    2   11    3  56.7  57.7 1016.3 -9.9 -9.999 -99.9 -99.99 -9.99
2019/11/18 02:06 PST    3.47   3.76    2  346    3  56.8  57.6 1016.2 -9.9 -9.999 -99.9 -99.99 -9.99
2019/11/18 02:12 PST    3.58   3.87    2  301    3  57.0  57.6 1016.2 -9.9 -9.999 -99.9 -99.99 -9.99
2019/11/18 02:18 PST    3.68   3.99    3  316    5  57.2  57.6 1016.2 -9.9 -9.999 -99.9 -99.99 -9.99
2019/11/18 02:24 PST    3.78   4.13    3  312    5  57.2  57.6 1016.1 -9.9 -9.999 -99.9 -99.99 -9.99
2019/11/18 02:30 PST    3.88   4.24    3  303    6  57.0  57.6 1016.1 -9.9 -9.999 -99.9 -99.99 -9.99
2019/11/18 02:36 PST    3.97   4.32    2  318    4  56.8  57.6 1016.2 -9.9 -9.999 -99.9 -99.99 -9.99
2019/11/18 02:42 PST    4.07   4.41    3  307    4  56.3  57.6 1016.1 -9.9 -9.999 -99.9 -99.99 -9.99
2019/11/18 02:48 PST    4.16   4.50    3  316    6  55.9  57.6 1016.1 -9.9 -9.999 -99.9 -99.99 -9.99
2019/11/18 02:54 PST    4.25   4.60    2  303    4  55.9  57.6 1016.1 -9.9 -9.999 -99.9 -99.99 -9.99
2019/11/18 03:00 PST    4.33   4.69    3  349    4  55.9  57.6 1016.0 -9.9 -9.999 -99.9 -99.99 -9.99
2019/11/18 03:06 PST    4.42   4.77    2   21    4  55.8  57.4 1016.0 -9.9 -9.999 -99.9 -99.99 -9.99
2019/11/18 03:12 PST    4.50   4.85    2   18    4  55.8  57.4 1016.0 -9.9 -9.999 -99.9 -99.99 -9.99
2019/11/18 03:18 PST    4.58   4.95    2   32    4  55.6  57.4 1016.0 -9.9 -9.999 -99.9 -99.99 -9.99
2019/11/18 03:24 PST    4.65   5.04    3  346    4  55.8  57.4 1015.9 -9.9 -9.999 -99.9 -99.99 -9.99
2019/11/18 03:30 PST    4.72   5.11    4  347    5  55.8  57.4 1015.8 -9.9 -9.999 -99.9 -99.99 -9.99
2019/11/18 03:36 PST    4.79   5.16    4  345    5  55.8  57.4 1015.8 -9.9 -9.999 -99.9 -99.99 -9.99
2019/11/18 03:42 PST    4.85   5.20    5  356    6  55.4  57.4 1015.8 -9.9 -9.999 -99.9 -99.99 -9.99
2019/11/18 03:48 PST    4.92   5.27    4  352    5  55.4  57.4 1015.7 -9.9 -9.999 -99.9 -99.99 -9.99
2019/11/18 03:54 PST    4.97   5.35    2   17    5  55.6  57.4 1015.6 -9.9 -9.999 -99.9 -99.99 -9.99
2019/11/18 04:00 PST    5.02   5.41    3  355    4  55.8  57.4 1015.7 -9.9 -9.999 -99.9 -99.99 -9.99
2019/11/18 04:06 PST    5.07   5.45    1   86    3  55.0  57.6 1015.7 -9.9 -9.999 -99.9 -99.99 -9.99
2019/11/18 04:12 PST    5.12   5.49    2   91    2  54.1  57.6 1015.8 -9.9 -9.999 -99.9 -99.99 -9.99
2019/11/18 04:18 PST    5.16   5.52    3  103    4  54.5  57.6 1015.8 -9.9 -9.999 -99.9 -99.99 -9.99
2019/11/18 04:24 PST    5.19   5.57    3   97    4  53.6  57.6 1015.8 -9.9 -9.999 -99.9 -99.99 -9.99
2019/11/18 04:30 PST    5.22   5.62    2  101    3  53.8  57.6 1015.7 -9.9 -9.999 -99.9 -99.99 -9.99
2019/11/18 04:36 PST    5.25   5.65    2   98    3  53.8  57.6 1015.7 -9.9 -9.999 -99.9 -99.99 -9.99
2019/11/18 04:42 PST    5.27   5.67    2   97    3  54.3  57.6 1015.7 -9.9 -9.999 -99.9 -99.99 -9.99
2019/11/18 04:48 PST    5.28   5.69    1   93    2  54.5  57.6 1015.7 -9.9 -9.999 -99.9 -99.99 -9.99
2019/11/18 04:54 PST    5.29   5.72    2   92    3  54.3  57.6 1015.7 -9.9 -9.999 -99.9 -99.99 -9.99
2019/11/18 05:00 PST    5.30   5.76    2   91    3  54.3  57.6 1015.7 -9.9 -9.999 -99.9 -99.99 -9.99
2019/11/18 05:06 PST    5.30   5.73    3   92    3  54.7  57.6 1015.7 -9.9 -9.999 -99.9 -99.99 -9.99
2019/11/18 05:12 PST    5.30   5.69    2   94    3  54.7  57.6 1015.7 -9.9 -9.999 -99.9 -99.99 -9.99
2019/11/18 05:18 PST    5.29   5.70    1   89    2  54.3  57.6 1015.8 -9.9 -9.999 -99.9 -99.99 -9.99
2019/11/18 05:24 PST    5.27   5.73    2   99    2  54.9  57.6 1015.8 -9.9 -9.999 -99.9 -99.99 -9.99
2019/11/18 05:30 PST    5.25   5.72    2   84    3  54.0  57.6 1015.8 -9.9 -9.999 -99.9 -99.99 -9.99
2019/11/18 05:36 PST    5.23   5.70    2   79    3  54.0  57.6 1015.7 -9.9 -9.999 -99.9 -99.99 -9.99
2019/11/18 05:42 PST    5.20   5.67    3   92    4  53.6  57.6 1015.7 -9.9 -9.999 -99.9 -99.99 -9.99
2019/11/18 05:48 PST    5.17   5.63    2   88    4  53.4  57.6 1015.6 -9.9 -9.999 -99.9 -99.99 -9.99
2019/11/18 05:54 PST    5.13   5.58    3   90    3  53.6  57.6 1015.6 -9.9 -9.999 -99.9 -99.99 -9.99
2019/11/18 06:00 PST    5.09   5.55    2   81    3  53.2  57.6 1015.7 -9.9 -9.999 -99.9 -99.99 -9.99
2019/11/18 06:06 PST    5.05   5.50    2   85    3  53.2  57.6 1015.7 -9.9 -9.999 -99.9 -99.99 -9.99
2019/11/18 06:12 PST    5.00   5.44    3   80    4  54.1  57.6 1015.7 -9.9 -9.999 -99.9 -99.99 -9.99
2019/11/18 06:18 PST    4.95   5.39    3   83    4  54.5  57.6 1015.6 -9.9 -9.999 -99.9 -99.99 -9.99
2019/11/18 06:24 PST    4.90   5.36    3   83    4  54.7  57.6 1015.6 -9.9 -9.999 -99.9 -99.99 -9.99
2019/11/18 06:30 PST    4.84   5.29    3   72    4  54.9  57.6 1015.7 -9.9 -9.999 -99.9 -99.99 -9.99
2019/11/18 06:36 PST    4.78   5.20    3   35    4  54.1  57.6 1015.7 -9.9 -9.999 -99.9 -99.99 -9.99
2019/11/18 06:42 PST    4.72   5.13    2  349    2  53.8  57.6 1015.8 -9.9 -9.999 -99.9 -99.99 -9.99
2019/11/18 06:48 PST    4.66   5.06    3   75    3  56.3  57.6 1015.8 -9.9 -9.999 -99.9 -99.99 -9.99
2019/11/18 06:54 PST    4.60   5.03    2    8    3  54.0  57.6 1016.0 -9.9 -9.999 -99.9 -99.99 -9.99
2019/11/18 07:00 PST    4.53   4.98    2    7    3  54.3  57.6 1016.0 -9.9 -9.999 -99.9 -99.99 -9.99
2019/11/18 07:06 PST    4.47   4.89    2  336    3  54.3  57.6 1016.1 -9.9 -9.999 -99.9 -99.99 -9.99
2019/11/18 07:12 PST    4.40   4.79    2  336    2  54.9  57.6 1016.1 -9.9 -9.999 -99.9 -99.99 -9.99
2019/11/18 07:18 PST    4.34   4.71    0   89    2  56.1  57.6 1016.0 -9.9 -9.999 -99.9 -99.99 -9.99
2019/11/18 07:24 PST    4.27   4.65    1   13    2  55.4  57.6 1016.1 -9.9 -9.999 -99.9 -99.99 -9.99
2019/11/18 07:30 PST    4.21   4.61    2   18    3  55.0  57.6 1016.1 -9.9 -9.999 -99.9 -99.99 -9.99
2019/11/18 07:36 PST    4.15   4.53    1    8    3  55.2  57.6 1016.1 -9.9 -9.999 -99.9 -99.99 -9.99
2019/11/18 07:42 PST    4.09   4.49    1    5    2  55.6  57.6 1016.1 -9.9 -9.999 -99.9 -99.99 -9.99
2019/11/18 07:48 PST    4.03   4.45    1   17    2  55.8  57.6 1016.0 -9.9 -9.999 -99.9 -99.99 -9.99
2019/11/18 07:54 PST    3.97   4.40    2  350    2  55.9  57.6 1016.0 -9.9 -9.999 -99.9 -99.99 -9.99
2019/11/18 08:00 PST    3.91   4.32    2    2    3  56.1  57.6 1016.0 -9.9 -9.999 -99.9 -99.99 -9.99
2019/11/18 08:06 PST    3.85   4.26    2    9    3  56.7  57.6 1016.0 -9.9 -9.999 -99.9 -99.99 -9.99
2019/11/18 08:12 PST    3.80   4.19    1    4    2  56.8  57.6 1016.0 -9.9 -9.999 -99.9 -99.99 -9.99
2019/11/18 08:18 PST    3.75   4.12    2  351    3  56.8  57.6 1016.1 -9.9 -9.999 -99.9 -99.99 -9.99
2019/11/18 08:24 PST    3.70   4.09    1  349    2  57.0  57.6 1016.0 -9.9 -9.999 -99.9 -99.99 -9.99
2019/11/18 08:30 PST    3.66   4.05    1  349    1  57.6  57.6 1016.0 -9.9 -9.999 -99.9 -99.99 -9.99
2019/11/18 08:36 PST    3.61   3.96    1  349    1  58.1  57.6 1015.9 -9.9 -9.999 -99.9 -99.99 -9.99
2019/11/18 08:42 PST    3.57   3.90    1  349    1  58.3  57.6 1015.9 -9.9 -9.999 -99.9 -99.99 -9.99
2019/11/18 08:48 PST    3.53   3.87    0  349    1  59.0  57.6 1015.8 -9.9 -9.999 -99.9 -99.99 -9.99
2019/11/18 08:54 PST    3.50   3.85    2  236    2  58.3  57.6 1015.9 -9.9 -9.999 -99.9 -99.99 -9.99
2019/11/18 09:00 PST    3.47   3.76    1  231    2  58.5  57.6 1016.0 -9.9 -9.999 -99.9 -99.99 -9.99
2019/11/18 09:06 PST    3.44   3.72    1  224    1  58.6  57.6 1016.0 -9.9 -9.999 -99.9 -99.99 -9.99
2019/11/18 09:12 PST    3.41   3.73    2  256    2  58.3  57.6 1016.0 -9.9 -9.999 -99.9 -99.99 -9.99
2019/11/18 09:18 PST    3.39   3.72    3  260    3  58.5  57.6 1016.0 -9.9 -9.999 -99.9 -99.99 -9.99
2019/11/18 09:24 PST    3.37   3.67    3  282    3  58.1  57.6 1016.0 -9.9 -9.999 -99.9 -99.99 -9.99
2019/11/18 09:30 PST    3.35   3.65    3  282    4  58.8  57.6 1015.9 -9.9 -9.999 -99.9 -99.99 -9.99
2019/11/18 09:36 PST    3.33   3.66    5  283    5  59.0  57.6 1015.8 -9.9 -9.999 -99.9 -99.99 -9.99
2019/11/18 09:42 PST    3.32   3.64    3  298    6  59.2  57.6 1015.8 -9.9 -9.999 -99.9 -99.99 -9.99
2019/11/18 09:48 PST    3.31   3.64    3  295    5  59.4  57.6 1015.7 -9.9 -9.999 -99.9 -99.99 -9.99
2019/11/18 09:54 PST    3.31   3.66    3  302    4  59.9  57.6 1015.6 -9.9 -9.999 -99.9 -99.99 -9.99
2019/11/18 10:00 PST    3.31   3.69    4  301    5  60.1  57.6 1015.5 -9.9 -9.999 -99.9 -99.99 -9.99
2019/11/18 10:06 PST    3.31   3.69    3  311    5  60.3  57.6 1015.5 -9.9 -9.999 -99.9 -99.99 -9.99
2019/11/18 10:12 PST    3.32   3.66    4  318    5  60.4  57.6 1015.5 -9.9 -9.999 -99.9 -99.99 -9.99
2019/11/18 10:18 PST    3.32   3.68    4  302    5  60.3  57.6 1015.4 -9.9 -9.999 -99.9 -99.99 -9.99
2019/11/18 10:24 PST    3.34   3.71    4  305    5  60.1  57.6 1015.4 -9.9 -9.999 -99.9 -99.99 -9.99
2019/11/18 10:30 PST    3.35   3.69    2  315    4  60.6  57.6 1015.5 -9.9 -9.999 -99.9 -99.99 -9.99
2019/11/18 10:36 PST    3.37   3.71    4  302    5  60.8  57.6 1015.4 -9.9 -9.999 -99.9 -99.99 -9.99
2019/11/18 10:42 PST    3.39   3.77    3  312    4  61.2  57.6 1015.3 -9.9 -9.999 -99.9 -99.99 -9.99
2019/11/18 10:48 PST    3.42   3.79    3  314    6  61.2  57.6 1015.2 -9.9 -9.999 -99.9 -99.99 -9.99
2019/11/18 10:54 PST    3.45   3.77    4  319    6  61.3  57.6 1015.1 -9.9 -9.999 -99.9 -99.99 -9.99
2019/11/18 11:00 PST    3.49   3.78 -999 -999 -999 -99.9 -99.9 -999.9 -9.9 -9.999 -99.9 -99.99 -9.99
2019/11/18 11:06 PST    3.52   3.85    4  323    6  61.7  57.6 1014.9 -9.9 -9.999 -99.9 -99.99 -9.99
2019/11/18 11:12 PST    3.56   3.92    4  319    6  61.7  57.6 1014.8 -9.9 -9.999 -99.9 -99.99 -9.99
2019/11/18 11:18 PST    3.61   3.98    4  319    7  62.1  57.6 1014.7 -9.9 -9.999 -99.9 -99.99 -9.99
2019/11/18 11:24 PST    3.66   4.02    4  313    8  62.6  57.6 1014.6 -9.9 -9.999 -99.9 -99.99 -9.99
2019/11/18 11:30 PST    3.71   4.05    4  307    5  62.6  57.6 1014.6 -9.9 -9.999 -99.9 -99.99 -9.99
2019/11/18 11:36 PST    3.76   4.08    5  317    7  62.2  57.6 1014.5 -9.9 -9.999 -99.9 -99.99 -9.99
2019/11/18 11:42 PST    3.82   4.15    4  313    9  62.1  57.6 1014.3 -9.9 -9.999 -99.9 -99.99 -9.99
2019/11/18 11:48 PST    3.88   4.26    4  318    7  62.6  57.6 1014.2 -9.9 -9.999 -99.9 -99.99 -9.99
2019/11/18 11:54 PST    3.94   4.35    4  318    6  63.1  57.6 1014.0 -9.9 -9.999 -99.9 -99.99 -9.99
2019/11/18 12:00 PST    4.01   4.42    4  314    7  63.5  57.6 1013.9 -9.9 -9.999 -99.9 -99.99 -9.99
2019/11/18 12:06 PST    4.08   4.47    5  313    7  63.3  57.6 1013.8 -9.9 -9.999 -99.9 -99.99 -9.99
2019/11/18 12:12 PST    4.15   4.54    4  304    7  64.0  57.6 1013.8 -9.9 -9.999 -99.9 -99.99 -9.99
2019/11/18 12:18 PST    4.22   4.60    5  309    7  64.2  57.6 1013.6 -9.9 -9.999 -99.9 -99.99 -9.99
2019/11/18 12:24 PST    4.30   4.67    4  306    7  64.8  57.6 1013.7 -9.9 -9.999 -99.9 -99.99 -9.99
2019/11/18 12:30 PST    4.37   4.75    5  322    8  64.9  57.6 1013.6 -9.9 -9.999 -99.9 -99.99 -9.99
2019/11/18 12:36 PST    4.45   4.81    4  310    7  65.3  57.6 1013.5 -9.9 -9.999 -99.9 -99.99 -9.99
2019/11/18 12:42 PST    4.53   4.86    5  319    7  65.7  57.6 1013.4 -9.9 -9.999 -99.9 -99.99 -9.99
2019/11/18 12:48 PST    4.60   4.94    4  320    8  65.8  57.6 1013.4 -9.9 -9.999 -99.9 -99.99 -9.99
2019/11/18 12:54 PST    4.68   5.04    4  323    7  66.2  57.6 1013.2 -9.9 -9.999 -99.9 -99.99 -9.99
2019/11/18 13:00 PST    4.76   5.10    5  313    7  66.7  57.6 1013.2 -9.9 -9.999 -99.9 -99.99 -9.99
2019/11/18 13:06 PST    4.84   5.15    3  324    7  67.5  57.6 1013.1 -9.9 -9.999 -99.9 -99.99 -9.99
2019/11/18 13:12 PST    4.91   5.21    3  328    5  67.1  57.6 1012.8 -9.9 -9.999 -99.9 -99.99 -9.99
2019/11/18 13:18 PST    4.99   5.28    3  315    6  67.6  57.6 1012.8 -9.9 -9.999 -99.9 -99.99 -9.99
2019/11/18 13:24 PST    5.07   5.36    3  308    5  68.0  57.6 1012.8 -9.9 -9.999 -99.9 -99.99 -9.99
2019/11/18 13:30 PST    5.14   5.44    4  293    6  67.8  57.6 1012.7 -9.9 -9.999 -99.9 -99.99 -9.99
2019/11/18 13:36 PST    5.21   5.50    3  299    5  68.0  57.6 1012.6 -9.9 -9.999 -99.9 -99.99 -9.99
2019/11/18 13:42 PST    5.28   5.60    3  328    6  68.0  57.6 1012.5 -9.9 -9.999 -99.9 -99.99 -9.99
2019/11/18 13:48 PST    5.35   5.67    3  313    5  68.5  57.6 1012.5 -9.9 -9.999 -99.9 -99.99 -9.99
2019/11/18 13:54 PST    5.41   5.71    4  321    5  68.9  57.6 1012.4 -9.9 -9.999 -99.9 -99.99 -9.99
2019/11/18 14:00 PST    5.47   5.77    3  316    5  69.3  57.6 1012.3 -9.9 -9.999 -99.9 -99.99 -9.99
2019/11/18 14:06 PST    5.53   5.83    4  273    5  67.5  57.6 1012.2 -9.9 -9.999 -99.9 -99.99 -9.99
2019/11/18 14:12 PST    5.59   5.89    2  316    5  68.9  57.6 1012.2 -9.9 -9.999 -99.9 -99.99 -9.99
2019/11/18 14:18 PST    5.64   5.94    4  281    5  69.1  57.6 1012.0 -9.9 -9.999 -99.9 -99.99 -9.99
2019/11/18 14:24 PST    5.69   6.01    4  279    5  68.5  57.6 1011.9 -9.9 -9.999 -99.9 -99.99 -9.99
2019/11/18 14:30 PST    5.74   6.05    4  261    4  66.2  57.6 1011.9 -9.9 -9.999 -99.9 -99.99 -9.99
2019/11/18 14:36 PST    5.78   6.07    3  268    5  66.4  57.6 1011.8 -9.9 -9.999 -99.9 -99.99 -9.99
2019/11/18 14:42 PST    5.81   6.13    3  265    4  66.9  57.7 1011.7 -9.9 -9.999 -99.9 -99.99 -9.99
2019/11/18 14:48 PST    5.85   6.19    3  259    4  66.6  57.7 1011.7 -9.9 -9.999 -99.9 -99.99 -9.99
2019/11/18 14:54 PST    5.88   6.22    3  259    3  67.5  57.7 1011.6 -9.9 -9.999 -99.9 -99.99 -9.99
2019/11/18 15:00 PST    5.90   6.25    3  250    4  66.7  57.7 1011.6 -9.9 -9.999 -99.9 -99.99 -9.99
2019/11/18 15:06 PST    5.92   6.26    2  236    4  66.4  57.7 1011.5 -9.9 -9.999 -99.9 -99.99 -9.99
2019/11/18 15:12 PST    5.94   6.29    3  246    4  65.7  57.7 1011.4 -9.9 -9.999 -99.9 -99.99 -9.99
2019/11/18 15:18 PST    5.95   6.28    2  245    3  67.1  57.9 1011.4 -9.9 -9.999 -99.9 -99.99 -9.99
2019/11/18 15:24 PST    5.95   6.28    3  198    3  65.5  57.9 1011.4 -9.9 -9.999 -99.9 -99.99 -9.99
2019/11/18 15:30 PST    5.95   6.29    3  195    4  64.2  57.9 1011.3 -9.9 -9.999 -99.9 -99.99 -9.99
2019/11/18 15:36 PST    5.95   6.30    2  193    5  64.6  57.9 1011.3 -9.9 -9.999 -99.9 -99.99 -9.99
2019/11/18 15:42 PST    5.94   6.26    2  210    3  65.3  58.1 1011.3 -9.9 -9.999 -99.9 -99.99 -9.99
2019/11/18 15:48 PST    5.93   6.24    1  242    2  66.6  58.1 1011.3 -9.9 -9.999 -99.9 -99.99 -9.99
2019/11/18 15:54 PST    5.91   6.23    1  241    1  67.1  58.3 1011.4 -9.9 -9.999 -99.9 -99.99 -9.99
2019/11/18 16:00 PST    5.88   6.19    1  258    2  68.4  58.3 1011.4 -9.9 -9.999 -99.9 -99.99 -9.99
2019/11/18 16:06 PST    5.85   6.15    1  269    1  69.1  58.3 1011.3 -9.9 -9.999 -99.9 -99.99 -9.99
2019/11/18 16:12 PST    5.82   6.13    1  277    2  70.2  58.3 1011.1 -9.9 -9.999 -99.9 -99.99 -9.99
2019/11/18 16:18 PST    5.78   6.08    0  347    1  71.6  58.3 1011.1 -9.9 -9.999 -99.9 -99.99 -9.99
2019/11/18 16:24 PST    5.73   6.01    0  184    3  67.5  58.3 1011.2 -9.9 -9.999 -99.9 -99.99 -9.99
2019/11/18 16:30 PST    5.68   5.97    2  327    2  65.7  58.3 1011.3 -9.9 -9.999 -99.9 -99.99 -9.99
2019/11/18 16:36 PST    5.63   5.92    1  317    2  66.2  58.3 1011.3 -9.9 -9.999 -99.9 -99.99 -9.99
2019/11/18 16:42 PST    5.56   5.85    0  313    1  67.1  58.3 1011.3 -9.9 -9.999 -99.9 -99.99 -9.99
2019/11/18 16:48 PST    5.50   5.74    2  259    3  66.9  58.3 1011.2 -9.9 -9.999 -99.9 -99.99 -9.99
2019/11/18 16:54 PST    5.42   5.66    5  261    6  63.7  58.3 1011.2 -9.9 -9.999 -99.9 -99.99 -9.99
2019/11/18 17:00 PST    5.34   5.55    3  260    6  64.8  58.3 1011.2 -9.9 -9.999 -99.9 -99.99 -9.99
2019/11/18 17:06 PST    5.26   5.46    2  268    4  64.0  58.3 1011.1 -9.9 -9.999 -99.9 -99.99 -9.99
2019/11/18 17:12 PST    5.17   5.37    4  281    5  64.8  58.3 1011.1 -9.9 -9.999 -99.9 -99.99 -9.99
2019/11/18 17:18 PST    5.08   5.26    3  281    5  64.2  58.5 1011.0 -9.9 -9.999 -99.9 -99.99 -9.99
2019/11/18 17:24 PST    4.98   5.15    5  289    6  64.8  58.3 1011.1 -9.9 -9.999 -99.9 -99.99 -9.99
2019/11/18 17:30 PST    4.87   5.04    6  292    7  65.1  58.5 1011.3 -9.9 -9.999 -99.9 -99.99 -9.99
2019/11/18 17:36 PST    4.76   4.91    6  292    8  65.1  58.5 1011.3 -9.9 -9.999 -99.9 -99.99 -9.99
2019/11/18 17:42 PST    4.65   4.79    5  282    8  63.3  58.3 1011.3 -9.9 -9.999 -99.9 -99.99 -9.99
2019/11/18 17:48 PST    4.53   4.67    7  294   10  62.4  58.3 1011.3 -9.9 -9.999 -99.9 -99.99 -9.99
2019/11/18 17:54 PST    4.41   4.55    9  286   11  61.7  58.3 1011.4 -9.9 -9.999 -99.9 -99.99 -9.99
2019/11/18 18:00 PST    4.28   4.40    8  283   11  61.3  58.3 1011.6 -9.9 -9.999 -99.9 -99.99 -9.99
2019/11/18 18:06 PST    4.15   4.30    7  289   10  61.2  58.3 1011.7 -9.9 -9.999 -99.9 -99.99 -9.99
2019/11/18 18:12 PST    4.01   4.20    7  286    9  60.8  58.3 1011.6 -9.9 -9.999 -99.9 -99.99 -9.99
2019/11/18 18:18 PST    3.88   4.02    7  290    9  60.6  58.3 1011.5 -9.9 -9.999 -99.9 -99.99 -9.99
2019/11/18 18:24 PST    3.74   3.86    6  286    9  60.6  58.3 1011.5 -9.9 -9.999 -99.9 -99.99 -9.99
2019/11/18 18:30 PST    3.60   3.75    6  288    9  60.8  58.3 1011.6 -9.9 -9.999 -99.9 -99.99 -9.99
2019/11/18 18:36 PST    3.45   3.64    4  300    7  61.0  58.3 1011.6 -9.9 -9.999 -99.9 -99.99 -9.99
2019/11/18 18:42 PST    3.31   3.47    3  312    6  61.0  58.3 1011.5 -9.9 -9.999 -99.9 -99.99 -9.99
2019/11/18 18:48 PST    3.16   3.34    2  341    4  60.8  58.3 1011.5 -9.9 -9.999 -99.9 -99.99 -9.99
2019/11/18 18:54 PST    3.02   3.21    2  345    4  60.8  58.3 1011.4 -9.9 -9.999 -99.9 -99.99 -9.99
2019/11/18 19:00 PST    2.87   3.08    2  329    3  60.8  58.3 1011.3 -9.9 -9.999 -99.9 -99.99 -9.99
2019/11/18 19:06 PST    2.72   2.95    0  357    3  60.8  58.3 1011.4 -9.9 -9.999 -99.9 -99.99 -9.99
2019/11/18 19:12 PST    2.58   2.84    3  298    4  60.6  58.3 1011.4 -9.9 -9.999 -99.9 -99.99 -9.99
2019/11/18 19:18 PST    2.43   2.72    3  290    4  60.3  58.3 1011.5 -9.9 -9.999 -99.9 -99.99 -9.99
2019/11/18 19:24 PST    2.29   2.59    2  280    3  59.9  58.3 1011.6 -9.9 -9.999 -99.9 -99.99 -9.99
2019/11/18 19:30 PST    2.15   2.45    5  283    7  58.6  58.3 1011.5 -9.9 -9.999 -99.9 -99.99 -9.99
2019/11/18 19:36 PST    2.01   2.33    6  274    8  57.9  58.3 1011.5 -9.9 -9.999 -99.9 -99.99 -9.99
2019/11/18 19:42 PST    1.87   2.24    6  265    7  57.6  58.3 1011.4 -9.9 -9.999 -99.9 -99.99 -9.99
2019/11/18 19:48 PST    1.74   2.15    5  252    7  57.2  58.3 1011.3 -9.9 -9.999 -99.9 -99.99 -9.99
2019/11/18 19:54 PST    1.61   2.05    4  246    5  57.2  58.3 1011.3 -9.9 -9.999 -99.9 -99.99 -9.99
2019/11/18 20:00 PST    1.48   1.92    4  235    5  57.2  58.5 1011.3 -9.9 -9.999 -99.9 -99.99 -9.99
2019/11/18 20:06 PST    1.36   1.83    7  251    7  57.2  58.5 1011.4 -9.9 -9.999 -99.9 -99.99 -9.99
2019/11/18 20:12 PST    1.24   1.71    8  237    9  56.5  58.5 1011.3 -9.9 -9.999 -99.9 -99.99 -9.99
2019/11/18 20:18 PST    1.12   1.59    7  241    9  56.1  58.5 1011.2 -9.9 -9.999 -99.9 -99.99 -9.99
2019/11/18 20:24 PST    1.01   1.48    6  236    8  56.3  58.5 1011.3 -9.9 -9.999 -99.9 -99.99 -9.99
2019/11/18 20:30 PST    0.91   1.42    3  274    6  56.3  58.5 1011.3 -9.9 -9.999 -99.9 -99.99 -9.99
2019/11/18 20:36 PST    0.81   1.30    3  291    5  56.5  58.5 1011.3 -9.9 -9.999 -99.9 -99.99 -9.99
2019/11/18 20:42 PST    0.71   1.22    0   57    3  56.5  58.5 1011.3 -9.9 -9.999 -99.9 -99.99 -9.99
2019/11/18 20:48 PST    0.62   1.16    0   13    1  56.5  58.5 1011.4 -9.9 -9.999 -99.9 -99.99 -9.99
2019/11/18 20:54 PST    0.53   1.08    1  353    3  56.5  58.5 1011.4 -9.9 -9.999 -99.9 -99.99 -9.99
2019/11/18 21:00 PST    0.45   0.96    1  272    2  56.5  58.5 1011.4 -9.9 -9.999 -99.9 -99.99 -9.99
2019/11/18 21:06 PST    0.38   0.88    1  104    1  56.5  58.5 1011.4 -9.9 -9.999 -99.9 -99.99 -9.99
2019/11/18 21:12 PST    0.31   0.83    1  252    2  56.5  58.5 1011.5 -9.9 -9.999 -99.9 -99.99 -9.99
2019/11/18 21:18 PST    0.24   0.78    0  207    1  56.5  58.5 1011.5 -9.9 -9.999 -99.9 -99.99 -9.99
2019/11/18 21:24 PST    0.18   0.72    2   97    2  55.8  58.5 1011.4 -9.9 -9.999 -99.9 -99.99 -9.99
2019/11/18 21:30 PST    0.12   0.65    1   40    2  56.1  58.5 1011.5 -9.9 -9.999 -99.9 -99.99 -9.99
2019/11/18 21:36 PST    0.07   0.57    2   82    2  56.1  58.5 1011.4 -9.9 -9.999 -99.9 -99.99 -9.99
2019/11/18 21:42 PST    0.03   0.52    2  100    3  55.8  58.5 1011.4 -9.9 -9.999 -99.9 -99.99 -9.99
2019/11/18 21:48 PST   -0.01   0.47    2   83    3  56.3  58.5 1011.5 -9.9 -9.999 -99.9 -99.99 -9.99
2019/11/18 21:54 PST   -0.05   0.40    2   87    3  56.3  58.5 1011.4 -9.9 -9.999 -99.9 -99.99 -9.99
2019/11/18 22:00 PST   -0.08   0.37    2   95    2  56.5  58.5 1011.4 -9.9 -9.999 -99.9 -99.99 -9.99
2019/11/18 22:06 PST   -0.10   0.36    1  111    2  56.5  58.5 1011.3 -9.9 -9.999 -99.9 -99.99 -9.99
2019/11/18 22:12 PST   -0.12   0.32    2  124    2  56.5  58.5 1011.1 -9.9 -9.999 -99.9 -99.99 -9.99
2019/11/18 22:18 PST   -0.13   0.30    2  203    4  57.2  58.5 1011.0 -9.9 -9.999 -99.9 -99.99 -9.99
2019/11/18 22:24 PST   -0.14   0.28    5  249    7  57.2  58.5 1011.1 -9.9 -9.999 -99.9 -99.99 -9.99
2019/11/18 22:30 PST   -0.15   0.27    5  214    6  57.0  58.5 1011.1 -9.9 -9.999 -99.9 -99.99 -9.99
2019/11/18 22:36 PST   -0.15   0.23    5  212    6  57.2  58.5 1011.0 -9.9 -9.999 -99.9 -99.99 -9.99
2019/11/18 22:42 PST   -0.14   0.21    4  228    6  57.2  58.5 1010.9 -9.9 -9.999 -99.9 -99.99 -9.99
2019/11/18 22:48 PST   -0.13   0.19    4  203    5  57.2  58.5 1010.8 -9.9 -9.999 -99.9 -99.99 -9.99
2019/11/18 22:54 PST   -0.12   0.23    6  223    7  57.4  58.5 1010.8 -9.9 -9.999 -99.9 -99.99 -9.99
2019/11/18 23:00 PST   -0.10   0.27    7  237    8  57.2  58.5 1010.9 -9.9 -9.999 -99.9 -99.99 -9.99
2019/11/18 23:06 PST   -0.07   0.29    6  243    9  57.2  58.5 1010.8 -9.9 -9.999 -99.9 -99.99 -9.99
2019/11/18 23:12 PST   -0.04   0.27    5  251    7  57.2  58.5 1010.9 -9.9 -9.999 -99.9 -99.99 -9.99
2019/11/18 23:18 PST   -0.01   0.28    8  249   10  57.0  58.5 1010.9 -9.9 -9.999 -99.9 -99.99 -9.99
2019/11/18 23:24 PST    0.04   0.33    7  260    8  57.0  58.5 1010.9 -9.9 -9.999 -99.9 -99.99 -9.99
2019/11/18 23:30 PST    0.08   0.42 -999 -999 -999 -99.9 -99.9 -999.9 -9.9 -9.999 -99.9 -99.99 -9.99
2019/11/18 23:36 PST    0.13   0.47    6  258    8  57.2  58.5 1010.8 -9.9 -9.999 -99.9 -99.99 -9.99
2019/11/18 23:42 PST    0.18   0.49    6  249    8  57.0  58.5 1010.6 -9.9 -9.999 -99.9 -99.99 -9.99
2019/11/18 23:48 PST    0.24   0.53    4  256    7  57.0  58.5 1010.5 -9.9 -9.999 -99.9 -99.99 -9.99
2019/11/18 23:54 PST    0.30   0.58    3  263    5  57.0  58.5 1010.5 -9.9 -9.999 -99.9 -99.99 -9.99
2019/11/19 00:00 PST    0.37   0.66    3  235    4  57.0  58.5 1010.5 -9.9 -9.999 -99.9 -99.99 -9.99
2019/11/19 00:06 PST    0.44   0.78    5  221    6  57.0  58.5 1010.5 -9.9 -9.999 -99.9 -99.99 -9.99
2019/11/19 00:12 PST    0.52   0.88    5  229    6  57.0  58.5 1010.5 -9.9 -9.999 -99.9 -99.99 -9.99
2019/11/19 00:18 PST    0.60   0.98    5  202    6  56.8  58.5 1010.5 -9.9 -9.999 -99.9 -99.99 -9.99
2019/11/19 00:24 PST    0.68   1.06    5  246    6  57.2  58.5 1010.6 -9.9 -9.999 -99.9 -99.99 -9.99
2019/11/19 00:30 PST    0.77   1.10    4  257    5  57.0  58.5 1010.3 -9.9 -9.999 -99.9 -99.99 -9.99
2019/11/19 00:36 PST    0.86   1.20    4  252    5  57.2  58.5 1010.3 -9.9 -9.999 -99.9 -99.99 -9.99
2019/11/19 00:42 PST    0.95   1.33    5  242    6  57.0  58.5 1010.3 -9.9 -9.999 -99.9 -99.99 -9.99
2019/11/19 00:48 PST    1.05   1.45    4  257    6  57.0  58.5 1010.3 -9.9 -9.999 -99.9 -99.99 -9.99
2019/11/19 00:54 PST    1.15   1.57    4  245    5  57.2  58.5 1010.4 -9.9 -9.999 -99.9 -99.99 -9.99
2019/11/19 01:00 PST    1.25   1.68    4  212    5  56.8  58.5 1010.4 -9.9 -9.999 -99.9 -99.99 -9.99
2019/11/19 01:06 PST    1.35   1.78    3  241    4  56.8  58.5 1010.6 -9.9 -9.999 -99.9 -99.99 -9.99
2019/11/19 01:12 PST    1.46   1.87    3  243    4  57.4  58.5 1010.4 -9.9 -9.999 -99.9 -99.99 -9.99
2019/11/19 01:18 PST    1.57   1.98    2  318    3  57.2  58.5 1010.4 -9.9 -9.999 -99.9 -99.99 -9.99
2019/11/19 01:24 PST    1.68   2.07    0  295    2  57.0  58.5 1010.3 -9.9 -9.999 -99.9 -99.99 -9.99
2019/11/19 01:30 PST    1.79   2.17    0  120    2  57.0  58.3 1010.3 -9.9 -9.999 -99.9 -99.99 -9.99
2019/11/19 01:36 PST    1.91   2.30    2   96    2  57.0  58.3 1010.2 -9.9 -9.999 -99.9 -99.99 -9.99
2019/11/19 01:42 PST    2.02   2.42    2  119    3  56.7  58.3 1010.2 -9.9 -9.999 -99.9 -99.99 -9.99
2019/11/19 01:48 PST    2.13   2.54    2  120    3  56.7  58.3 1010.3 -9.9 -9.999 -99.9 -99.99 -9.99
2019/11/19 01:54 PST    2.25   2.68    2  151    4  56.8  58.3 1010.3 -9.9 -9.999 -99.9 -99.99 -9.99
2019/11/19 02:00 PST    2.37   2.82    2  129    3  57.0  58.3 1010.2 -9.9 -9.999 -99.9 -99.99 -9.99
2019/11/19 02:06 PST    2.48   2.94    4  152    5  57.0  58.3 1010.2 -9.9 -9.999 -99.9 -99.99 -9.99
2019/11/19 02:12 PST    2.60   3.03    4  172    6  57.0  58.3 1010.1 -9.9 -9.999 -99.9 -99.99 -9.99
2019/11/19 02:18 PST    2.71   3.11    3  124    4  57.0  58.3 1010.1 -9.9 -9.999 -99.9 -99.99 -9.99
2019/11/19 02:24 PST    2.83   3.24    2  112    4  57.0  58.3 1010.0 -9.9 -9.999 -99.9 -99.99 -9.99
2019/11/19 02:30 PST    2.94   3.39    3  108    5  57.0  58.3 1010.1 -9.9 -9.999 -99.9 -99.99 -9.99
2019/11/19 02:36 PST    3.06   3.52    3   92    4  56.3  58.1 1010.1 -9.9 -9.999 -99.9 -99.99 -9.99
2019/11/19 02:42 PST    3.17   3.62    3   87    4  55.8  58.1 1010.1 -9.9 -9.999 -99.9 -99.99 -9.99
2019/11/19 02:48 PST    3.28   3.73    3   89    4  55.8  58.1 1010.0 -9.9 -9.999 -99.9 -99.99 -9.99
2019/11/19 02:54 PST    3.39   3.84    3   88    4  55.9  58.1 1010.1 -9.9 -9.999 -99.9 -99.99 -9.99
2019/11/19 03:00 PST    3.50   3.95    3   88    4  55.9  57.9 1010.1 -9.9 -9.999 -99.9 -99.99 -9.99
2019/11/19 03:06 PST    3.61   4.04    4   94    5  55.8  57.9 1010.1 -9.9 -9.999 -99.9 -99.99 -9.99
2019/11/19 03:12 PST    3.72   4.17    4   90    5  55.4  57.9 1010.1 -9.9 -9.999 -99.9 -99.99 -9.99
2019/11/19 03:18 PST    3.82   4.29    4   95    5  55.2  58.1 1010.0 -9.9 -9.999 -99.9 -99.99 -9.99
2019/11/19 03:24 PST    3.93   4.39    4   95    6  55.0  58.1 1010.0 -9.9 -9.999 -99.9 -99.99 -9.99
2019/11/19 03:30 PST    4.03   4.47    5  102    6  55.2  58.1 1009.9 -9.9 -9.999 -99.9 -99.99 -9.99
2019/11/19 03:36 PST    4.13   4.59    3  108    6  55.4  58.1 1010.0 -9.9 -9.999 -99.9 -99.99 -9.99
2019/11/19 03:42 PST    4.22   4.69    3   80    4  55.2  58.1 1010.0 -9.9 -9.999 -99.9 -99.99 -9.99
2019/11/19 03:48 PST    4.32   4.77    3   95    4  55.0  58.1 1009.9 -9.9 -9.999 -99.9 -99.99 -9.99
2019/11/19 03:54 PST    4.41   4.87    3   85    5  54.9  58.1 1009.8 -9.9 -9.999 -99.9 -99.99 -9.99
2019/11/19 04:00 PST    4.50   4.97    1   91    4  55.0  58.1 1009.8 -9.9 -9.999 -99.9 -99.99 -9.99
2019/11/19 04:06 PST    4.59   5.06    1   79    2  55.2  58.1 1009.7 -9.9 -9.999 -99.9 -99.99 -9.99
2019/11/19 04:12 PST    4.67   5.14    3   91    4  54.9  58.1 1009.6 -9.9 -9.999 -99.9 -99.99 -9.99
2019/11/19 04:18 PST    4.75   5.23    4   89    5  55.0  58.1 1009.7 -9.9 -9.999 -99.9 -99.99 -9.99
2019/11/19 04:24 PST    4.83   5.29    4   97    6  55.2  58.1 1009.6 -9.9 -9.999 -99.9 -99.99 -9.99
2019/11/19 04:30 PST    4.91   5.33    3   92    5  55.2  57.9 1009.7 -9.9 -9.999 -99.9 -99.99 -9.99
2019/11/19 04:36 PST    4.98   5.40    4   98    4  55.0  57.9 1009.6 -9.9 -9.999 -99.9 -99.99 -9.99
2019/11/19 04:42 PST    5.04   5.48    4   96    5  54.9  57.9 1009.6 -9.9 -9.999 -99.9 -99.99 -9.99
2019/11/19 04:48 PST    5.11   5.54    4   94    6  54.9  57.9 1009.5 -9.9 -9.999 -99.9 -99.99 -9.99
2019/11/19 04:54 PST    5.16   5.60    4  101    6  55.2  57.9 1009.5 -9.9 -9.999 -99.9 -99.99 -9.99
2019/11/19 05:00 PST    5.22   5.63    4   90    5  54.9  57.9 1009.3 -9.9 -9.999 -99.9 -99.99 -9.99
2019/11/19 05:06 PST    5.27   5.67    4  102    5  55.2  57.9 1009.2 -9.9 -9.999 -99.9 -99.99 -9.99
2019/11/19 05:12 PST    5.32   5.73    4  102    4  55.0  57.9 1009.1 -9.9 -9.999 -99.9 -99.99 -9.99
2019/11/19 05:18 PST    5.36   5.79    3  102    4  55.4  57.9 1009.1 -9.9 -9.999 -99.9 -99.99 -9.99
2019/11/19 05:24 PST    5.39   5.82    3   92    5  55.0  57.9 1009.0 -9.9 -9.999 -99.9 -99.99 -9.99
2019/11/19 05:30 PST    5.42   5.87    3   92    4  55.0  57.9 1009.2 -9.9 -9.999 -99.9 -99.99 -9.99
2019/11/19 05:36 PST    5.45   5.90    3  107    4  55.0  57.9 1009.2 -9.9 -9.999 -99.9 -99.99 -9.99
2019/11/19 05:42 PST    5.47   5.93    3  130    5  55.6  57.9 1009.4 -9.9 -9.999 -99.9 -99.99 -9.99
2019/11/19 05:48 PST    5.48   5.97    3  113    5  55.9  57.9 1009.4 -9.9 -9.999 -99.9 -99.99 -9.99
2019/11/19 05:54 PST    5.49   6.00    7  115    7  56.3  57.9 1009.4 -9.9 -9.999 -99.9 -99.99 -9.99
2019/11/19 06:00 PST    5.50   5.99    6  119    9  56.1  57.9 1009.4 -9.9 -9.999 -99.9 -99.99 -9.99
2019/11/19 06:06 PST    5.50   5.98    6  121    8  56.5  57.9 1009.3 -9.9 -9.999 -99.9 -99.99 -9.99
2019/11/19 06:12 PST    5.49   6.03    4  154    6  56.5  57.9 1009.3 -9.9 -9.999 -99.9 -99.99 -9.99
2019/11/19 06:18 PST    5.48   6.02    6  252    7  55.8  57.9 1009.2 -9.9 -9.999 -99.9 -99.99 -9.99
2019/11/19 06:24 PST    5.46   5.98    4  276    8  55.4  57.9 1009.2 -9.9 -9.999 -99.9 -99.99 -9.99
2019/11/19 06:30 PST    5.44   5.92    4  243    5  55.4  57.9 1009.2 -9.9 -9.999 -99.9 -99.99 -9.99
2019/11/19 06:36 PST    5.41   5.90    3  215    4  55.4  57.9 1009.0 -9.9 -9.999 -99.9 -99.99 -9.99
2019/11/19 06:42 PST    5.38   5.86    1   79    4  55.4  57.9 1009.2 -9.9 -9.999 -99.9 -99.99 -9.99
2019/11/19 06:48 PST    5.34   5.85    0  351    2  55.2  57.9 1009.3 -9.9 -9.999 -99.9 -99.99 -9.99
2019/11/19 06:54 PST    5.30   5.80    0  317    1  55.2  57.9 1009.3 -9.9 -9.999 -99.9 -99.99 -9.99
2019/11/19 07:00 PST    5.25   5.77    2  307    3  55.2  57.9 1009.3 -9.9 -9.999 -99.9 -99.99 -9.99
2019/11/19 07:06 PST    5.20   5.72    4  295    4  55.6  57.9 1009.4 -9.9 -9.999 -99.9 -99.99 -9.99
2019/11/19 07:12 PST    5.15   5.66    1   21    3  54.9  57.9 1009.4 -9.9 -9.999 -99.9 -99.99 -9.99
2019/11/19 07:18 PST    5.09   5.59    2  341    4  55.0  57.9 1009.5 -9.9 -9.999 -99.9 -99.99 -9.99
2019/11/19 07:24 PST    5.04   5.54    3  343    4  55.6  57.9 1009.5 -9.9 -9.999 -99.9 -99.99 -9.99
2019/11/19 07:30 PST    4.97   5.47    3  299    4  55.8  57.9 1009.5 -9.9 -9.999 -99.9 -99.99 -9.99
2019/11/19 07:36 PST    4.91   5.39    2  291    3  55.9  57.9 1009.7 -9.9 -9.999 -99.9 -99.99 -9.99
2019/11/19 07:42 PST    4.84   5.34    2  224    2  56.1  57.9 1009.7 -9.9 -9.999 -99.9 -99.99 -9.99
2019/11/19 07:48 PST    4.77   5.29    2  185    2  56.5  57.9 1009.7 -9.9 -9.999 -99.9 -99.99 -9.99
2019/11/19 07:54 PST    4.70   5.23    0  141    1  57.2  57.9 1009.7 -9.9 -9.999 -99.9 -99.99 -9.99
2019/11/19 08:00 PST    4.63   5.14    2  238    4  56.5  57.9 1009.9 -9.9 -9.999 -99.9 -99.99 -9.99
2019/11/19 08:06 PST    4.56   5.08    2  285    3  56.3  57.9 1009.9 -9.9 -9.999 -99.9 -99.99 -9.99
2019/11/19 08:12 PST    4.49   5.02    3  284    3  56.7  57.9 1009.8 -9.9 -9.999 -99.9 -99.99 -9.99
2019/11/19 08:18 PST    4.41   4.93    1  276    2  56.8  57.9 1009.9 -9.9 -9.999 -99.9 -99.99 -9.99
2019/11/19 08:24 PST    4.34   4.83    3  349    3  57.0  57.9 1010.0 -9.9 -9.999 -99.9 -99.99 -9.99
2019/11/19 08:30 PST    4.27   4.75    2    7    3  56.7  57.7 1010.1 -9.9 -9.999 -99.9 -99.99 -9.99
2019/11/19 08:36 PST    4.20   4.69    1  327    3  56.8  57.7 1010.0 -9.9 -9.999 -99.9 -99.99 -9.99
2019/11/19 08:42 PST    4.12   4.59    1  357    3  57.7  57.7 1010.0 -9.9 -9.999 -99.9 -99.99 -9.99
2019/11/19 08:48 PST    4.05   4.47    1  329    2  57.7  57.7 1010.0 -9.9 -9.999 -99.9 -99.99 -9.99
2019/11/19 08:54 PST    3.98   4.40    1  308    4  58.1  57.7 1010.0 -9.9 -9.999 -99.9 -99.99 -9.99
2019/11/19 09:00 PST    3.92   4.36    2  276    4  58.1  57.7 1010.1 -9.9 -9.999 -99.9 -99.99 -9.99
2019/11/19 09:06 PST    3.85   4.29    2  252    3  58.1  57.7 1010.1 -9.9 -9.999 -99.9 -99.99 -9.99
2019/11/19 09:12 PST    3.79   4.22    3  234    4  57.9  57.7 1010.1 -9.9 -9.999 -99.9 -99.99 -9.99
2019/11/19 09:18 PST    3.72   4.15    3  210    4  58.1  57.9 1010.0 -9.9 -9.999 -99.9 -99.99 -9.99
2019/11/19 09:24 PST    3.66   4.10    4  237    5  57.7  57.9 1010.1 -9.9 -9.999 -99.9 -99.99 -9.99
2019/11/19 09:30 PST    3.60   4.04    5  260    6  57.9  57.9 1010.2 -9.9 -9.999 -99.9 -99.99 -9.99
2019/11/19 09:36 PST    3.55   3.98    3  276    6  57.9  57.9 1010.3 -9.9 -9.999 -99.9 -99.99 -9.99
2019/11/19 09:42 PST    3.49   3.94    3  249    4  58.1  57.9 1010.3 -9.9 -9.999 -99.9 -99.99 -9.99
2019/11/19 09:48 PST    3.44   3.91    1  246    3  58.8  57.9 1010.1 -9.9 -9.999 -99.9 -99.99 -9.99
2019/11/19 09:54 PST    3.39   3.86    2  252    3  58.6  57.9 1010.0 -9.9 -9.999 -99.9 -99.99 -9.99
2019/11/19 10:00 PST    3.35   3.80    4  279    6  58.5  57.9 1010.1 -9.9 -9.999 -99.9 -99.99 -9.99
2019/11/19 10:06 PST    3.30   3.77    4  272    6  58.8  57.9 1010.1 -9.9 -9.999 -99.9 -99.99 -9.99
2019/11/19 10:12 PST    3.26   3.72    5  280    7  58.6  57.9 1009.9 -9.9 -9.999 -99.9 -99.99 -9.99
2019/11/19 10:18 PST    3.22   3.65    6  281   11  58.6  57.9 1009.7 -9.9 -9.999 -99.9 -99.99 -9.99
2019/11/19 10:24 PST    3.19   3.61    7  277    9  59.0  57.9 1009.7 -9.9 -9.999 -99.9 -99.99 -9.99
2019/11/19 10:30 PST    3.16   3.60    8  281   11  59.2  57.9 1009.7 -9.9 -9.999 -99.9 -99.99 -9.99
2019/11/19 10:36 PST    3.13   3.61    8  275   11  59.2  57.9 1009.6 -9.9 -9.999 -99.9 -99.99 -9.99
2019/11/19 10:42 PST    3.10   3.60    8  276   11  59.2  57.9 1009.5 -9.9 -9.999 -99.9 -99.99 -9.99
2019/11/19 10:48 PST    3.08   3.56    7  276   10  59.2  57.9 1009.5 -9.9 -9.999 -99.9 -99.99 -9.99
2019/11/19 10:54 PST    3.06   3.48    9  272   12  59.0  57.9 1009.4 -9.9 -9.999 -99.9 -99.99 -9.99
2019/11/19 11:00 PST    3.04   3.45    9  272   12  59.0  58.1 1009.3 -9.9 -9.999 -99.9 -99.99 -9.99
2019/11/19 11:06 PST    3.03   3.48    9  270   12  59.2  58.1 1009.2 -9.9 -9.999 -99.9 -99.99 -9.99
2019/11/19 11:12 PST    3.02   3.51    9  272   13  58.8  58.1 1009.0 -9.9 -9.999 -99.9 -99.99 -9.99
2019/11/19 11:18 PST    3.02   3.53   10  271   13  59.0  58.1 1008.8 -9.9 -9.999 -99.9 -99.99 -9.99
2019/11/19 11:24 PST    3.02   3.52    8  269   11  59.2  58.1 1008.6 -9.9 -9.999 -99.9 -99.99 -9.99
2019/11/19 11:30 PST    3.02   3.48    8  273   12  59.2  58.1 1008.7 -9.9 -9.999 -99.9 -99.99 -9.99
2019/11/19 11:36 PST    3.03   3.46    8  274   11  59.2  58.1 1008.5 -9.9 -9.999 -99.9 -99.99 -9.99
2019/11/19 11:42 PST    3.04   3.50   10  272   12  59.4  58.1 1008.5 -9.9 -9.999 -99.9 -99.99 -9.99
2019/11/19 11:48 PST    3.06   3.55    9  275   11  59.4  58.1 1008.6 -9.9 -9.999 -99.9 -99.99 -9.99
2019/11/19 11:54 PST    3.08   3.58    8  272   12  59.4  58.1 1008.4 -9.9 -9.999 -99.9 -99.99 -9.99
2019/11/19 12:00 PST    3.10   3.56    9  279   12  59.4  58.1 1008.4 -9.9 -9.999 -99.9 -99.99 -9.99
2019/11/19 12:06 PST    3.13   3.56    8  275   12  59.5  58.1 1008.4 -9.9 -9.999 -99.9 -99.99 -9.99
2019/11/19 12:12 PST    3.16   3.60    9  279   11  59.5  58.1 1008.4 -9.9 -9.999 -99.9 -99.99 -9.99
2019/11/19 12:18 PST    3.20   3.65    8  281   12  59.7  58.1 1008.2 -9.9 -9.999 -99.9 -99.99 -9.99
2019/11/19 12:24 PST    3.24   3.69    8  281   11  59.7  58.1 1008.1 -9.9 -9.999 -99.9 -99.99 -9.99
2019/11/19 12:30 PST    3.28   3.72    9  277   11  59.9  58.1 1007.9 -9.9 -9.999 -99.9 -99.99 -9.99
2019/11/19 12:36 PST    3.33   3.75    8  272   11  60.1  58.1 1007.7 -9.9 -9.999 -99.9 -99.99 -9.99
2019/11/19 12:42 PST    3.38   3.80    8  281   10  59.9  58.1 1007.6 -9.9 -9.999 -99.9 -99.99 -9.99
2019/11/19 12:48 PST    3.43   3.89    7  277    9  60.1  58.1 1007.5 -9.9 -9.999 -99.9 -99.99 -9.99
2019/11/19 12:54 PST    3.49   3.96    7  275   10  60.3  58.1 1007.6 -9.9 -9.999 -99.9 -99.99 -9.99
2019/11/19 13:00 PST    3.55   4.01    9  265   11  59.9  58.1 1007.5 -9.9 -9.999 -99.9 -99.99 -9.99
2019/11/19 13:06 PST    3.61   4.07   10  268   12  59.7  58.1 1007.4 -9.9 -9.999 -99.9 -99.99 -9.99
2019/11/19 13:12 PST    3.68   4.13   10  270   12  59.7  58.3 1007.3 -9.9 -9.999 -99.9 -99.99 -9.99
2019/11/19 13:18 PST    3.75   4.20    8  271   11  59.7  58.3 1007.3 -9.9 -9.999 -99.9 -99.99 -9.99
2019/11/19 13:24 PST    3.82   4.26    9  275   12  59.9  58.3 1007.2 -9.9 -9.999 -99.9 -99.99 -9.99
2019/11/19 13:30 PST    3.89   4.34   10  276   13  59.9  58.5 1007.1 -9.9 -9.999 -99.9 -99.99 -9.99
2019/11/19 13:36 PST    3.96   4.42   11  279   13  59.4  58.3 1007.0 -9.9 -9.999 -99.9 -99.99 -9.99
2019/11/19 13:42 PST    4.04   4.48   12  280   14  59.4  58.5 1006.9 -9.9 -9.999 -99.9 -99.99 -9.99
2019/11/19 13:48 PST    4.11   4.54   10  275   14  59.4  58.5 1006.8 -9.9 -9.999 -99.9 -99.99 -9.99
2019/11/19 13:54 PST    4.19   4.60    9  272   14  59.4  58.5 1006.6 -9.9 -9.999 -99.9 -99.99 -9.99
2019/11/19 14:00 PST    4.27   4.67    8  265   11  59.4  58.5 1006.5 -9.9 -9.999 -99.9 -99.99 -9.99
2019/11/19 14:06 PST    4.34   4.75    8  266   12  59.4  58.5 1006.4 -9.9 -9.999 -99.9 -99.99 -9.99
2019/11/19 14:12 PST    4.42   4.86    9  271   12  59.5  58.5 1006.4 -9.9 -9.999 -99.9 -99.99 -9.99
2019/11/19 14:18 PST    4.50   4.95   10  277   13  59.7  58.5 1006.4 -9.9 -9.999 -99.9 -99.99 -9.99
2019/11/19 14:24 PST    4.57   5.01    9  277   12  59.5  58.5 1006.5 -9.9 -9.999 -99.9 -99.99 -9.99
2019/11/19 14:30 PST    4.65   5.06    7  275   11  59.7  58.6 1006.3 -9.9 -9.999 -99.9 -99.99 -9.99
2019/11/19 14:36 PST    4.72   5.11    6  274   10  59.9  58.6 1006.2 -9.9 -9.999 -99.9 -99.99 -9.99
2019/11/19 14:42 PST    4.79   5.20    8  269   10  59.5  58.6 1006.2 -9.9 -9.999 -99.9 -99.99 -9.99
2019/11/19 14:48 PST    4.86   5.30    7  274   10  59.7  58.6 1006.1 -9.9 -9.999 -99.9 -99.99 -9.99
2019/11/19 14:54 PST    4.93   5.36    7  277    9  59.9  58.6 1006.1 -9.9 -9.999 -99.9 -99.99 -9.99
2019/11/19 15:00 PST    4.99   5.40    8  277   10  60.1  58.6 1006.1 -9.9 -9.999 -99.9 -99.99 -9.99
2019/11/19 15:06 PST    5.06   5.45   11  278   13  59.5  58.6 1006.1 -9.9 -9.999 -99.9 -99.99 -9.99
2019/11/19 15:12 PST    5.12   5.53   11  281   15  59.2  58.6 1006.1 -9.9 -9.999 -99.9 -99.99 -9.99
2019/11/19 15:18 PST    5.18   5.60   10  279   14  59.2  58.6 1006.0 -9.9 -9.999 -99.9 -99.99 -9.99
2019/11/19 15:24 PST    5.23   5.68    9  280   12  59.4  58.6 1005.9 -9.9 -9.999 -99.9 -99.99 -9.99
2019/11/19 15:30 PST    5.28   5.73   10  277   14  59.2  58.6 1005.9 -9.9 -9.999 -99.9 -99.99 -9.99
2019/11/19 15:36 PST    5.33   5.78   11  278   14  59.0  58.6 1005.8 -9.9 -9.999 -99.9 -99.99 -9.99
2019/11/19 15:42 PST    5.38   5.80   10  273   12  58.6  58.6 1005.7 -9.9 -9.999 -99.9 -99.99 -9.99
2019/11/19 15:48 PST    5.42   5.85   10  272   13  58.5  58.5 1005.6 -9.9 -9.999 -99.9 -99.99 -9.99
2019/11/19 15:54 PST    5.46   5.90   10  271   13  58.5  58.5 1005.7 -9.9 -9.999 -99.9 -99.99 -9.99
2019/11/19 16:00 PST    5.49   5.94   10  273   13  58.1  58.5 1005.7 -9.9 -9.999 -99.9 -99.99 -9.99
2019/11/19 16:06 PST    5.52   5.97    9  274   13  58.1  58.5 1005.6 -9.9 -9.999 -99.9 -99.99 -9.99
2019/11/19 16:12 PST    5.55   6.03    9  279   13  57.9  58.6 1005.5 -9.9 -9.999 -99.9 -99.99 -9.99
2019/11/19 16:18 PST    5.57   6.05   11  282   15  57.9  58.5 1005.4 -9.9 -9.999 -99.9 -99.99 -9.99
2019/11/19 16:24 PST    5.59   6.06    8  278   13  57.9  58.5 1005.3 -9.9 -9.999 -99.9 -99.99 -9.99
2019/11/19 16:30 PST    5.60   6.06    8  281   11  58.1  58.5 1005.2 -9.9 -9.999 -99.9 -99.99 -9.99
2019/11/19 16:36 PST    5.61   6.07    9  280   11  57.7  58.5 1005.0 -9.9 -9.999 -99.9 -99.99 -9.99
2019/11/19 16:42 PST    5.62   6.08    6  282   10  57.7  58.5 1004.9 -9.9 -9.999 -99.9 -99.99 -9.99
2019/11/19 16:48 PST    5.62   6.08    8  284   11  57.4  58.5 1004.8 -9.9 -9.999 -99.9 -99.99 -9.99
2019/11/19 16:54 PST    5.61   6.07    9  284   11  57.4  58.5 1004.8 -9.9 -9.999 -99.9 -99.99 -9.99
2019/11/19 17:00 PST    5.60   6.07    8  286   11  57.2  58.5 1004.8 -9.9 -9.999 -99.9 -99.99 -9.99
2019/11/19 17:06 PST    5.59   6.06    9  285   11  57.0  58.5 1004.6 -9.9 -9.999 -99.9 -99.99 -9.99
2019/11/19 17:12 PST    5.57   6.05    6  283   10  57.0  58.5 1004.6 -9.9 -9.999 -99.9 -99.99 -9.99
2019/11/19 17:18 PST    5.55   6.02    4  282    8  57.0  58.5 1004.6 -9.9 -9.999 -99.9 -99.99 -9.99
2019/11/19 17:24 PST    5.52   5.99    5  282    7  56.8  58.5 1004.4 -9.9 -9.999 -99.9 -99.99 -9.99
2019/11/19 17:30 PST    5.48   5.97    6  266    8  57.0  58.3 1004.3 -9.9 -9.999 -99.9 -99.99 -9.99
2019/11/19 17:36 PST    5.44   5.93    7  264    9  57.0  58.5 1004.2 -9.9 -9.999 -99.9 -99.99 -9.99
2019/11/19 17:42 PST    5.39   5.88    7  258    9  56.7  58.5 1004.2 -9.9 -9.999 -99.9 -99.99 -9.99
2019/11/19 17:48 PST    5.34   5.81    5  270    9  56.7  58.5 1004.2 -9.9 -9.999 -99.9 -99.99 -9.99
2019/11/19 17:54 PST    5.28   5.75    6  281    8  56.7  58.5 1004.1 -9.9 -9.999 -99.9 -99.99 -9.99
2019/11/19 18:00 PST    5.22   5.69    5  284    7  56.7  58.5 1004.0 -9.9 -9.999 -99.9 -99.99 -9.99
2019/11/19 18:06 PST    5.15   5.61    3  274    6  57.0  58.3 1004.0 -9.9 -9.999 -99.9 -99.99 -9.99
2019/11/19 18:12 PST    5.08   5.54    4  282    5  56.8  58.5 1004.0 -9.9 -9.999 -99.9 -99.99 -9.99
2019/11/19 18:18 PST    5.00   5.47    3  281    5  56.8  58.5 1004.0 -9.9 -9.999 -99.9 -99.99 -9.99
2019/11/19 18:24 PST    4.91   5.37    3  286    4  57.0  58.5 1004.0 -9.9 -9.999 -99.9 -99.99 -9.99
2019/11/19 18:30 PST    4.82   5.27    2  293    3  57.0  58.5 1003.9 -9.9 -9.999 -99.9 -99.99 -9.99
2019/11/19 18:36 PST    4.73   5.18    2  277    2  57.0  58.5 1003.8 -9.9 -9.999 -99.9 -99.99 -9.99
2019/11/19 18:42 PST    4.63   5.07    1  298    2  56.8  58.5 1003.5 -9.9 -9.999 -99.9 -99.99 -9.99
2019/11/19 18:48 PST    4.52   4.94    1    7    2  56.8  58.5 1003.4 -9.9 -9.999 -99.9 -99.99 -9.99
2019/11/19 18:54 PST    4.42   4.84    2  332    2  56.8  58.5 1003.4 -9.9 -9.999 -99.9 -99.99 -9.99
2019/11/19 19:00 PST    4.30   4.73    3  285    3  56.7  58.5 1003.3 -9.9 -9.999 -99.9 -99.99 -9.99
2019/11/19 19:06 PST    4.19   4.62    1  284    3  56.7  58.5 1003.2 -9.9 -9.999 -99.9 -99.99 -9.99
2019/11/19 19:12 PST    4.07   4.50    1  262    1  56.7  58.5 1003.2 -9.9 -9.999 -99.9 -99.99 -9.99
2019/11/19 19:18 PST    3.94   4.39    2  111    2  56.7  58.5 1003.2 -9.9 -9.999 -99.9 -99.99 -9.99
2019/11/19 19:24 PST    3.82   4.26    0  142    1  56.7  58.5 1003.2 -9.9 -9.999 -99.9 -99.99 -9.99
2019/11/19 19:30 PST    3.69   4.10    1  241    3  56.7  58.5 1003.3 -9.9 -9.999 -99.9 -99.99 -9.99
2019/11/19 19:36 PST    3.56   3.99    3  256    4  56.7  58.5 1003.3 -9.9 -9.999 -99.9 -99.99 -9.99
2019/11/19 19:42 PST    3.42   3.87    1  277    6  56.5  58.5 1003.3 -9.9 -9.999 -99.9 -99.99 -9.99
2019/11/19 19:48 PST    3.29   3.72    1   11    4  56.5  58.5 1003.2 -9.9 -9.999 -99.9 -99.99 -9.99
2019/11/19 19:54 PST    3.15   3.55    3   88    4  56.1  58.5 1003.1 -9.9 -9.999 -99.9 -99.99 -9.99
2019/11/19 20:00 PST    3.02   3.43    2  120    3  56.1  58.3 1003.0 -9.9 -9.999 -99.9 -99.99 -9.99
2019/11/19 20:06 PST    2.88   3.32    1  193    1  56.3  58.3 1003.0 -9.9 -9.999 -99.9 -99.99 -9.99
2019/11/19 20:12 PST    2.75   3.19    1   12    2  56.1  58.5 1002.9 -9.9 -9.999 -99.9 -99.99 -9.99
2019/11/19 20:18 PST    2.61   3.07    1  113    2  55.9  58.3 1002.9 -9.9 -9.999 -99.9 -99.99 -9.99
2019/11/19 20:24 PST    2.48   2.96    2  118    3  55.9  58.3 1002.9 -9.9 -9.999 -99.9 -99.99 -9.99
2019/11/19 20:30 PST    2.34   2.83    2   84    3  55.8  58.3 1002.9 -9.9 -9.999 -99.9 -99.99 -9.99
2019/11/19 20:36 PST    2.21   2.68    1  146    2  55.6  58.3 1002.9 -9.9 -9.999 -99.9 -99.99 -9.99
2019/11/19 20:42 PST    2.08   2.56    2  113    3  55.6  58.3 1003.0 -9.9 -9.999 -99.9 -99.99 -9.99
2019/11/19 20:48 PST    1.96   2.45    1   81    2  55.8  58.3 1003.0 -9.9 -9.999 -99.9 -99.99 -9.99
2019/11/19 20:54 PST    1.83   2.33    2  102    2  55.6  58.3 1002.9 -9.9 -9.999 -99.9 -99.99 -9.99
2019/11/19 21:00 PST    1.71   2.20    3   90    4  55.4  58.3 1002.9 -9.9 -9.999 -99.9 -99.99 -9.99
2019/11/19 21:06 PST    1.59   2.10    3   95    4  55.0  58.3 1002.9 -9.9 -9.999 -99.9 -99.99 -9.99
2019/11/19 21:12 PST    1.48   1.98    3   91    5  54.9  58.3 1002.8 -9.9 -9.999 -99.9 -99.99 -9.99
2019/11/19 21:18 PST    1.37   1.86    1  352    3  54.7  58.5 1002.8 -9.9 -9.999 -99.9 -99.99 -9.99
2019/11/19 21:24 PST    1.26 -99.99 -999 -999 -999 -99.9 -99.9 -999.9 -9.9 -9.999 -99.9 -99.99 -9.99
2019/11/19 21:30 PST    1.16 -99.99 -999 -999 -999 -99.9 -99.9 -999.9 -9.9 -9.999 -99.9 -99.99 -9.99
2019/11/19 21:36 PST    1.06 -99.99 -999 -999 -999 -99.9 -99.9 -999.9 -9.9 -9.999 -99.9 -99.99 -9.99